<?xml version="1.0" encoding="UTF-8" standalone="no" ?>
<gpx xmlns="http://www.topografix.com/GPX/1/1" xmlns:xsi="http://www.w3.org/2001/XMLSchema-instance" xsi:schemaLocation="http://www.topografix.com/GPX/1/1 http://www.topografix.com/GPX/1/1/gpx.xsd" version="1.1" creator="VisuGPX - https://www.visugpx.com">
  <metadata>
    <name>Entre Biron et Gavaudun</name>
    <desc><![CDATA[Une boucle sympathique avec quelques jolies passages.]]></desc>
  </metadata>
  <trk>
    <name><![CDATA[30-JAN-13 17:21:58]]></name>
    <trkseg>
      <trkpt lat="44.63075" lon="0.87824">
        <ele>211.63</ele>
        <time>2013-01-30T13:33:26Z</time>
      </trkpt>
      <trkpt lat="44.63073" lon="0.87823">
        <ele>210.19</ele>
        <time>2013-01-30T13:33:56Z</time>
      </trkpt>
      <trkpt lat="44.63072" lon="0.87821">
        <ele>212.59</ele>
        <time>2013-01-30T13:34:30Z</time>
      </trkpt>
      <trkpt lat="44.63071" lon="0.87817">
        <ele>213.07</ele>
        <time>2013-01-30T13:34:53Z</time>
      </trkpt>
      <trkpt lat="44.63072" lon="0.87819">
        <ele>212.11</ele>
        <time>2013-01-30T13:35:12Z</time>
      </trkpt>
      <trkpt lat="44.63072" lon="0.87818">
        <ele>212.11</ele>
        <time>2013-01-30T13:35:16Z</time>
      </trkpt>
      <trkpt lat="44.63062" lon="0.87815">
        <ele>211.63</ele>
        <time>2013-01-30T13:35:21Z</time>
      </trkpt>
      <trkpt lat="44.63032" lon="0.87807">
        <ele>209.7</ele>
        <time>2013-01-30T13:35:32Z</time>
      </trkpt>
      <trkpt lat="44.63015" lon="0.87814">
        <ele>208.26</ele>
        <time>2013-01-30T13:35:36Z</time>
      </trkpt>
      <trkpt lat="44.62996" lon="0.87818">
        <ele>206.82</ele>
        <time>2013-01-30T13:35:40Z</time>
      </trkpt>
      <trkpt lat="44.62983" lon="0.87823">
        <ele>205.86</ele>
        <time>2013-01-30T13:35:43Z</time>
      </trkpt>
      <trkpt lat="44.62957" lon="0.87819">
        <ele>202.49</ele>
        <time>2013-01-30T13:35:52Z</time>
      </trkpt>
      <trkpt lat="44.6296" lon="0.87798">
        <ele>201.05</ele>
        <time>2013-01-30T13:35:56Z</time>
      </trkpt>
      <trkpt lat="44.62979" lon="0.87707">
        <ele>201.05</ele>
        <time>2013-01-30T13:36:11Z</time>
      </trkpt>
      <trkpt lat="44.62978" lon="0.8769">
        <ele>201.53</ele>
        <time>2013-01-30T13:36:14Z</time>
      </trkpt>
      <trkpt lat="44.62944" lon="0.87639">
        <ele>200.57</ele>
        <time>2013-01-30T13:36:26Z</time>
      </trkpt>
      <trkpt lat="44.62872" lon="0.87572">
        <ele>198.65</ele>
        <time>2013-01-30T13:36:41Z</time>
      </trkpt>
      <trkpt lat="44.62844" lon="0.87543">
        <ele>197.21</ele>
        <time>2013-01-30T13:36:50Z</time>
      </trkpt>
      <trkpt lat="44.6279" lon="0.87497">
        <ele>195.28</ele>
        <time>2013-01-30T13:37:02Z</time>
      </trkpt>
      <trkpt lat="44.62712" lon="0.8742">
        <ele>190.96</ele>
        <time>2013-01-30T13:37:14Z</time>
      </trkpt>
      <trkpt lat="44.62605" lon="0.87285">
        <ele>186.15</ele>
        <time>2013-01-30T13:37:31Z</time>
      </trkpt>
      <trkpt lat="44.62519" lon="0.87193">
        <ele>185.19</ele>
        <time>2013-01-30T13:37:46Z</time>
      </trkpt>
      <trkpt lat="44.62497" lon="0.87187">
        <ele>184.71</ele>
        <time>2013-01-30T13:37:50Z</time>
      </trkpt>
      <trkpt lat="44.62462" lon="0.87181">
        <ele>185.19</ele>
        <time>2013-01-30T13:37:57Z</time>
      </trkpt>
      <trkpt lat="44.62459" lon="0.87186">
        <ele>185.19</ele>
        <time>2013-01-30T13:37:58Z</time>
      </trkpt>
      <trkpt lat="44.62427" lon="0.87257">
        <ele>179.42</ele>
        <time>2013-01-30T13:38:10Z</time>
      </trkpt>
      <trkpt lat="44.62424" lon="0.87263">
        <ele>178.94</ele>
        <time>2013-01-30T13:38:11Z</time>
      </trkpt>
      <trkpt lat="44.6242" lon="0.87277">
        <ele>177.98</ele>
        <time>2013-01-30T13:38:13Z</time>
      </trkpt>
      <trkpt lat="44.62408" lon="0.87297">
        <ele>176.06</ele>
        <time>2013-01-30T13:38:17Z</time>
      </trkpt>
      <trkpt lat="44.62378" lon="0.87356">
        <ele>172.69</ele>
        <time>2013-01-30T13:38:28Z</time>
      </trkpt>
      <trkpt lat="44.62354" lon="0.87396">
        <ele>172.69</ele>
        <time>2013-01-30T13:38:37Z</time>
      </trkpt>
      <trkpt lat="44.62342" lon="0.87427">
        <ele>170.77</ele>
        <time>2013-01-30T13:38:43Z</time>
      </trkpt>
      <trkpt lat="44.6233" lon="0.87453">
        <ele>167.89</ele>
        <time>2013-01-30T13:38:48Z</time>
      </trkpt>
      <trkpt lat="44.62318" lon="0.87455">
        <ele>166.45</ele>
        <time>2013-01-30T13:38:52Z</time>
      </trkpt>
      <trkpt lat="44.62283" lon="0.87443">
        <ele>164.52</ele>
        <time>2013-01-30T13:39:00Z</time>
      </trkpt>
      <trkpt lat="44.62259" lon="0.87438">
        <ele>164.52</ele>
        <time>2013-01-30T13:39:05Z</time>
      </trkpt>
      <trkpt lat="44.62207" lon="0.87425">
        <ele>166.93</ele>
        <time>2013-01-30T13:39:17Z</time>
      </trkpt>
      <trkpt lat="44.62199" lon="0.87427">
        <ele>167.41</ele>
        <time>2013-01-30T13:39:19Z</time>
      </trkpt>
      <trkpt lat="44.62154" lon="0.87425">
        <ele>170.29</ele>
        <time>2013-01-30T13:39:30Z</time>
      </trkpt>
      <trkpt lat="44.62118" lon="0.87428">
        <ele>174.14</ele>
        <time>2013-01-30T13:39:40Z</time>
      </trkpt>
      <trkpt lat="44.62105" lon="0.87432">
        <ele>173.17</ele>
        <time>2013-01-30T13:39:48Z</time>
      </trkpt>
      <trkpt lat="44.62096" lon="0.87433">
        <ele>172.69</ele>
        <time>2013-01-30T13:39:53Z</time>
      </trkpt>
      <trkpt lat="44.62087" lon="0.8743">
        <ele>171.25</ele>
        <time>2013-01-30T13:39:58Z</time>
      </trkpt>
      <trkpt lat="44.62055" lon="0.8742">
        <ele>168.37</ele>
        <time>2013-01-30T13:40:09Z</time>
      </trkpt>
      <trkpt lat="44.62021" lon="0.87415">
        <ele>171.73</ele>
        <time>2013-01-30T13:40:20Z</time>
      </trkpt>
      <trkpt lat="44.61989" lon="0.87406">
        <ele>177.02</ele>
        <time>2013-01-30T13:40:31Z</time>
      </trkpt>
      <trkpt lat="44.61948" lon="0.87386">
        <ele>182.31</ele>
        <time>2013-01-30T13:40:44Z</time>
      </trkpt>
      <trkpt lat="44.61912" lon="0.87388">
        <ele>178.94</ele>
        <time>2013-01-30T13:40:54Z</time>
      </trkpt>
      <trkpt lat="44.61881" lon="0.87407">
        <ele>173.66</ele>
        <time>2013-01-30T13:41:05Z</time>
      </trkpt>
      <trkpt lat="44.61843" lon="0.87433">
        <ele>172.21</ele>
        <time>2013-01-30T13:41:15Z</time>
      </trkpt>
      <trkpt lat="44.61802" lon="0.87456">
        <ele>171.73</ele>
        <time>2013-01-30T13:41:26Z</time>
      </trkpt>
      <trkpt lat="44.61789" lon="0.87454">
        <ele>173.66</ele>
        <time>2013-01-30T13:41:30Z</time>
      </trkpt>
      <trkpt lat="44.61768" lon="0.87462">
        <ele>171.73</ele>
        <time>2013-01-30T13:41:37Z</time>
      </trkpt>
      <trkpt lat="44.61729" lon="0.87456">
        <ele>167.41</ele>
        <time>2013-01-30T13:41:45Z</time>
      </trkpt>
      <trkpt lat="44.61711" lon="0.87444">
        <ele>164.52</ele>
        <time>2013-01-30T13:41:49Z</time>
      </trkpt>
      <trkpt lat="44.61695" lon="0.87429">
        <ele>163.08</ele>
        <time>2013-01-30T13:41:53Z</time>
      </trkpt>
      <trkpt lat="44.6164" lon="0.87394">
        <ele>165.96</ele>
        <time>2013-01-30T13:42:08Z</time>
      </trkpt>
      <trkpt lat="44.61619" lon="0.87381">
        <ele>170.29</ele>
        <time>2013-01-30T13:42:18Z</time>
      </trkpt>
      <trkpt lat="44.61607" lon="0.87369">
        <ele>173.66</ele>
        <time>2013-01-30T13:42:25Z</time>
      </trkpt>
      <trkpt lat="44.61617" lon="0.87339">
        <ele>173.17</ele>
        <time>2013-01-30T13:42:36Z</time>
      </trkpt>
      <trkpt lat="44.61637" lon="0.87264">
        <ele>174.14</ele>
        <time>2013-01-30T13:42:54Z</time>
      </trkpt>
      <trkpt lat="44.61644" lon="0.87247">
        <ele>173.66</ele>
        <time>2013-01-30T13:42:58Z</time>
      </trkpt>
      <trkpt lat="44.6167" lon="0.8717">
        <ele>172.69</ele>
        <time>2013-01-30T13:43:10Z</time>
      </trkpt>
      <trkpt lat="44.61729" lon="0.8706">
        <ele>173.66</ele>
        <time>2013-01-30T13:43:29Z</time>
      </trkpt>
      <trkpt lat="44.61738" lon="0.87039">
        <ele>174.14</ele>
        <time>2013-01-30T13:43:33Z</time>
      </trkpt>
      <trkpt lat="44.61763" lon="0.86984">
        <ele>173.66</ele>
        <time>2013-01-30T13:43:43Z</time>
      </trkpt>
      <trkpt lat="44.61781" lon="0.86909">
        <ele>176.54</ele>
        <time>2013-01-30T13:43:58Z</time>
      </trkpt>
      <trkpt lat="44.61792" lon="0.86871">
        <ele>177.98</ele>
        <time>2013-01-30T13:44:10Z</time>
      </trkpt>
      <trkpt lat="44.61799" lon="0.86847">
        <ele>179.42</ele>
        <time>2013-01-30T13:44:21Z</time>
      </trkpt>
      <trkpt lat="44.61786" lon="0.86794">
        <ele>181.83</ele>
        <time>2013-01-30T13:44:35Z</time>
      </trkpt>
      <trkpt lat="44.6178" lon="0.86786">
        <ele>183.27</ele>
        <time>2013-01-30T13:44:38Z</time>
      </trkpt>
      <trkpt lat="44.61786" lon="0.86771">
        <ele>185.19</ele>
        <time>2013-01-30T13:44:43Z</time>
      </trkpt>
      <trkpt lat="44.61805" lon="0.86753">
        <ele>186.15</ele>
        <time>2013-01-30T13:44:50Z</time>
      </trkpt>
      <trkpt lat="44.61815" lon="0.86733">
        <ele>186.15</ele>
        <time>2013-01-30T13:44:54Z</time>
      </trkpt>
      <trkpt lat="44.6183" lon="0.86685">
        <ele>186.15</ele>
        <time>2013-01-30T13:45:03Z</time>
      </trkpt>
      <trkpt lat="44.61868" lon="0.866">
        <ele>183.75</ele>
        <time>2013-01-30T13:45:17Z</time>
      </trkpt>
      <trkpt lat="44.61889" lon="0.86552">
        <ele>183.75</ele>
        <time>2013-01-30T13:45:25Z</time>
      </trkpt>
      <trkpt lat="44.6189" lon="0.86467">
        <ele>182.31</ele>
        <time>2013-01-30T13:45:39Z</time>
      </trkpt>
      <trkpt lat="44.61891" lon="0.86451">
        <ele>182.31</ele>
        <time>2013-01-30T13:45:43Z</time>
      </trkpt>
      <trkpt lat="44.6189" lon="0.86404">
        <ele>181.83</ele>
        <time>2013-01-30T13:45:52Z</time>
      </trkpt>
      <trkpt lat="44.61887" lon="0.86386">
        <ele>180.87</ele>
        <time>2013-01-30T13:45:55Z</time>
      </trkpt>
      <trkpt lat="44.61887" lon="0.86349">
        <ele>179.42</ele>
        <time>2013-01-30T13:46:00Z</time>
      </trkpt>
      <trkpt lat="44.61888" lon="0.86325">
        <ele>178.46</ele>
        <time>2013-01-30T13:46:03Z</time>
      </trkpt>
      <trkpt lat="44.61867" lon="0.86281">
        <ele>178.46</ele>
        <time>2013-01-30T13:46:10Z</time>
      </trkpt>
      <trkpt lat="44.61822" lon="0.86251">
        <ele>180.87</ele>
        <time>2013-01-30T13:46:21Z</time>
      </trkpt>
      <trkpt lat="44.61808" lon="0.86225">
        <ele>181.35</ele>
        <time>2013-01-30T13:46:27Z</time>
      </trkpt>
      <trkpt lat="44.61793" lon="0.86197">
        <ele>179.9</ele>
        <time>2013-01-30T13:46:33Z</time>
      </trkpt>
      <trkpt lat="44.61767" lon="0.86136">
        <ele>175.1</ele>
        <time>2013-01-30T13:46:42Z</time>
      </trkpt>
      <trkpt lat="44.61743" lon="0.86094">
        <ele>171.73</ele>
        <time>2013-01-30T13:46:50Z</time>
      </trkpt>
      <trkpt lat="44.61738" lon="0.86092">
        <ele>171.25</ele>
        <time>2013-01-30T13:46:51Z</time>
      </trkpt>
      <trkpt lat="44.61712" lon="0.8608">
        <ele>168.37</ele>
        <time>2013-01-30T13:46:56Z</time>
      </trkpt>
      <trkpt lat="44.61657" lon="0.86047">
        <ele>163.56</ele>
        <time>2013-01-30T13:47:07Z</time>
      </trkpt>
      <trkpt lat="44.61641" lon="0.8603">
        <ele>163.08</ele>
        <time>2013-01-30T13:47:11Z</time>
      </trkpt>
      <trkpt lat="44.61629" lon="0.8602">
        <ele>163.08</ele>
        <time>2013-01-30T13:47:14Z</time>
      </trkpt>
      <trkpt lat="44.61603" lon="0.85996">
        <ele>161.16</ele>
        <time>2013-01-30T13:47:21Z</time>
      </trkpt>
      <trkpt lat="44.61564" lon="0.85939">
        <ele>158.27</ele>
        <time>2013-01-30T13:47:34Z</time>
      </trkpt>
      <trkpt lat="44.61554" lon="0.85924">
        <ele>156.83</ele>
        <time>2013-01-30T13:47:42Z</time>
      </trkpt>
      <trkpt lat="44.6154" lon="0.85903">
        <ele>158.75</ele>
        <time>2013-01-30T13:47:53Z</time>
      </trkpt>
      <trkpt lat="44.61538" lon="0.85902">
        <ele>158.75</ele>
        <time>2013-01-30T13:47:55Z</time>
      </trkpt>
      <trkpt lat="44.61532" lon="0.85889">
        <ele>159.72</ele>
        <time>2013-01-30T13:47:59Z</time>
      </trkpt>
      <trkpt lat="44.61524" lon="0.85868">
        <ele>161.64</ele>
        <time>2013-01-30T13:48:06Z</time>
      </trkpt>
      <trkpt lat="44.61513" lon="0.85859">
        <ele>161.16</ele>
        <time>2013-01-30T13:48:12Z</time>
      </trkpt>
      <trkpt lat="44.61471" lon="0.85835">
        <ele>165</ele>
        <time>2013-01-30T13:48:27Z</time>
      </trkpt>
      <trkpt lat="44.61439" lon="0.85804">
        <ele>166.93</ele>
        <time>2013-01-30T13:48:40Z</time>
      </trkpt>
      <trkpt lat="44.61409" lon="0.8577">
        <ele>169.33</ele>
        <time>2013-01-30T13:48:54Z</time>
      </trkpt>
      <trkpt lat="44.61396" lon="0.85739">
        <ele>170.77</ele>
        <time>2013-01-30T13:49:07Z</time>
      </trkpt>
      <trkpt lat="44.61401" lon="0.85703">
        <ele>169.33</ele>
        <time>2013-01-30T13:49:16Z</time>
      </trkpt>
      <trkpt lat="44.61387" lon="0.85653">
        <ele>167.41</ele>
        <time>2013-01-30T13:49:24Z</time>
      </trkpt>
      <trkpt lat="44.6137" lon="0.85603">
        <ele>170.77</ele>
        <time>2013-01-30T13:49:37Z</time>
      </trkpt>
      <trkpt lat="44.61364" lon="0.85588">
        <ele>170.77</ele>
        <time>2013-01-30T13:49:40Z</time>
      </trkpt>
      <trkpt lat="44.61333" lon="0.85512">
        <ele>166.93</ele>
        <time>2013-01-30T13:49:49Z</time>
      </trkpt>
      <trkpt lat="44.61311" lon="0.85452">
        <ele>167.41</ele>
        <time>2013-01-30T13:49:56Z</time>
      </trkpt>
      <trkpt lat="44.61297" lon="0.85421">
        <ele>169.33</ele>
        <time>2013-01-30T13:50:01Z</time>
      </trkpt>
      <trkpt lat="44.61298" lon="0.85391">
        <ele>170.77</ele>
        <time>2013-01-30T13:50:08Z</time>
      </trkpt>
      <trkpt lat="44.61335" lon="0.85344">
        <ele>173.17</ele>
        <time>2013-01-30T13:50:23Z</time>
      </trkpt>
      <trkpt lat="44.61361" lon="0.8529">
        <ele>174.14</ele>
        <time>2013-01-30T13:50:37Z</time>
      </trkpt>
      <trkpt lat="44.61375" lon="0.85245">
        <ele>172.21</ele>
        <time>2013-01-30T13:50:43Z</time>
      </trkpt>
      <trkpt lat="44.61379" lon="0.85168">
        <ele>168.85</ele>
        <time>2013-01-30T13:50:51Z</time>
      </trkpt>
      <trkpt lat="44.61381" lon="0.85159">
        <ele>168.37</ele>
        <time>2013-01-30T13:50:52Z</time>
      </trkpt>
      <trkpt lat="44.61388" lon="0.85131">
        <ele>166.93</ele>
        <time>2013-01-30T13:50:55Z</time>
      </trkpt>
      <trkpt lat="44.61394" lon="0.85092">
        <ele>165</ele>
        <time>2013-01-30T13:50:59Z</time>
      </trkpt>
      <trkpt lat="44.61413" lon="0.85019">
        <ele>162.12</ele>
        <time>2013-01-30T13:51:07Z</time>
      </trkpt>
      <trkpt lat="44.61419" lon="0.84988">
        <ele>161.64</ele>
        <time>2013-01-30T13:51:13Z</time>
      </trkpt>
      <trkpt lat="44.61405" lon="0.84963">
        <ele>162.6</ele>
        <time>2013-01-30T13:51:18Z</time>
      </trkpt>
      <trkpt lat="44.61399" lon="0.84946">
        <ele>164.04</ele>
        <time>2013-01-30T13:51:21Z</time>
      </trkpt>
      <trkpt lat="44.61378" lon="0.84892">
        <ele>165</ele>
        <time>2013-01-30T13:51:30Z</time>
      </trkpt>
      <trkpt lat="44.61372" lon="0.84864">
        <ele>164.52</ele>
        <time>2013-01-30T13:51:34Z</time>
      </trkpt>
      <trkpt lat="44.61367" lon="0.84842">
        <ele>164.04</ele>
        <time>2013-01-30T13:51:37Z</time>
      </trkpt>
      <trkpt lat="44.61369" lon="0.84812">
        <ele>163.56</ele>
        <time>2013-01-30T13:51:41Z</time>
      </trkpt>
      <trkpt lat="44.61371" lon="0.84798">
        <ele>163.56</ele>
        <time>2013-01-30T13:51:43Z</time>
      </trkpt>
      <trkpt lat="44.61378" lon="0.84753">
        <ele>163.56</ele>
        <time>2013-01-30T13:51:49Z</time>
      </trkpt>
      <trkpt lat="44.61387" lon="0.84726">
        <ele>162.6</ele>
        <time>2013-01-30T13:51:53Z</time>
      </trkpt>
      <trkpt lat="44.61398" lon="0.84697">
        <ele>162.12</ele>
        <time>2013-01-30T13:51:57Z</time>
      </trkpt>
      <trkpt lat="44.61418" lon="0.84649">
        <ele>159.72</ele>
        <time>2013-01-30T13:52:03Z</time>
      </trkpt>
      <trkpt lat="44.61438" lon="0.8462">
        <ele>157.79</ele>
        <time>2013-01-30T13:52:07Z</time>
      </trkpt>
      <trkpt lat="44.61467" lon="0.8459">
        <ele>154.91</ele>
        <time>2013-01-30T13:52:12Z</time>
      </trkpt>
      <trkpt lat="44.61496" lon="0.84554">
        <ele>151.06</ele>
        <time>2013-01-30T13:52:17Z</time>
      </trkpt>
      <trkpt lat="44.61511" lon="0.84518">
        <ele>149.62</ele>
        <time>2013-01-30T13:52:22Z</time>
      </trkpt>
      <trkpt lat="44.615" lon="0.84513">
        <ele>148.66</ele>
        <time>2013-01-30T13:52:28Z</time>
      </trkpt>
      <trkpt lat="44.61444" lon="0.84494">
        <ele>146.74</ele>
        <time>2013-01-30T13:52:45Z</time>
      </trkpt>
      <trkpt lat="44.61391" lon="0.84476">
        <ele>142.89</ele>
        <time>2013-01-30T13:52:56Z</time>
      </trkpt>
      <trkpt lat="44.61358" lon="0.84465">
        <ele>142.89</ele>
        <time>2013-01-30T13:53:05Z</time>
      </trkpt>
      <trkpt lat="44.61317" lon="0.84449">
        <ele>148.18</ele>
        <time>2013-01-30T13:53:18Z</time>
      </trkpt>
      <trkpt lat="44.61275" lon="0.84431">
        <ele>149.14</ele>
        <time>2013-01-30T13:53:31Z</time>
      </trkpt>
      <trkpt lat="44.61244" lon="0.84412">
        <ele>154.43</ele>
        <time>2013-01-30T13:53:44Z</time>
      </trkpt>
      <trkpt lat="44.61211" lon="0.84386">
        <ele>152.03</ele>
        <time>2013-01-30T13:53:56Z</time>
      </trkpt>
      <trkpt lat="44.6118" lon="0.84362">
        <ele>147.7</ele>
        <time>2013-01-30T13:54:07Z</time>
      </trkpt>
      <trkpt lat="44.61168" lon="0.84352">
        <ele>147.22</ele>
        <time>2013-01-30T13:54:17Z</time>
      </trkpt>
      <trkpt lat="44.61163" lon="0.84349">
        <ele>146.74</ele>
        <time>2013-01-30T13:54:28Z</time>
      </trkpt>
      <trkpt lat="44.61164" lon="0.84347">
        <ele>146.26</ele>
        <time>2013-01-30T13:54:37Z</time>
      </trkpt>
      <trkpt lat="44.61168" lon="0.84349">
        <ele>148.18</ele>
        <time>2013-01-30T13:54:51Z</time>
      </trkpt>
      <trkpt lat="44.61168" lon="0.84351">
        <ele>148.18</ele>
        <time>2013-01-30T13:54:59Z</time>
      </trkpt>
      <trkpt lat="44.61158" lon="0.84342">
        <ele>147.22</ele>
        <time>2013-01-30T13:55:07Z</time>
      </trkpt>
      <trkpt lat="44.61153" lon="0.84338">
        <ele>146.26</ele>
        <time>2013-01-30T13:55:21Z</time>
      </trkpt>
      <trkpt lat="44.6115" lon="0.84338">
        <ele>147.22</ele>
        <time>2013-01-30T13:55:39Z</time>
      </trkpt>
      <trkpt lat="44.61151" lon="0.84344">
        <ele>144.82</ele>
        <time>2013-01-30T13:55:59Z</time>
      </trkpt>
      <trkpt lat="44.61151" lon="0.84339">
        <ele>142.89</ele>
        <time>2013-01-30T13:56:23Z</time>
      </trkpt>
      <trkpt lat="44.61149" lon="0.84336">
        <ele>143.37</ele>
        <time>2013-01-30T13:56:34Z</time>
      </trkpt>
      <trkpt lat="44.61126" lon="0.84318">
        <ele>145.3</ele>
        <time>2013-01-30T13:56:45Z</time>
      </trkpt>
      <trkpt lat="44.61094" lon="0.84286">
        <ele>146.74</ele>
        <time>2013-01-30T13:57:00Z</time>
      </trkpt>
      <trkpt lat="44.61077" lon="0.84269">
        <ele>148.18</ele>
        <time>2013-01-30T13:57:10Z</time>
      </trkpt>
      <trkpt lat="44.6107" lon="0.84267">
        <ele>147.7</ele>
        <time>2013-01-30T13:57:14Z</time>
      </trkpt>
      <trkpt lat="44.61027" lon="0.84278">
        <ele>147.7</ele>
        <time>2013-01-30T13:57:30Z</time>
      </trkpt>
      <trkpt lat="44.60976" lon="0.84287">
        <ele>151.06</ele>
        <time>2013-01-30T13:57:47Z</time>
      </trkpt>
      <trkpt lat="44.60904" lon="0.84286">
        <ele>154.43</ele>
        <time>2013-01-30T13:58:08Z</time>
      </trkpt>
      <trkpt lat="44.60851" lon="0.84284">
        <ele>157.31</ele>
        <time>2013-01-30T13:58:24Z</time>
      </trkpt>
      <trkpt lat="44.60827" lon="0.84283">
        <ele>158.27</ele>
        <time>2013-01-30T13:58:33Z</time>
      </trkpt>
      <trkpt lat="44.60795" lon="0.84276">
        <ele>158.75</ele>
        <time>2013-01-30T13:58:42Z</time>
      </trkpt>
      <trkpt lat="44.60723" lon="0.84256">
        <ele>155.87</ele>
        <time>2013-01-30T13:58:55Z</time>
      </trkpt>
      <trkpt lat="44.60716" lon="0.84254">
        <ele>155.87</ele>
        <time>2013-01-30T13:58:56Z</time>
      </trkpt>
      <trkpt lat="44.60668" lon="0.84229">
        <ele>152.51</ele>
        <time>2013-01-30T13:59:02Z</time>
      </trkpt>
      <trkpt lat="44.60638" lon="0.842">
        <ele>149.14</ele>
        <time>2013-01-30T13:59:06Z</time>
      </trkpt>
      <trkpt lat="44.60611" lon="0.8416">
        <ele>146.26</ele>
        <time>2013-01-30T13:59:10Z</time>
      </trkpt>
      <trkpt lat="44.6053" lon="0.841">
        <ele>142.41</ele>
        <time>2013-01-30T13:59:19Z</time>
      </trkpt>
      <trkpt lat="44.60522" lon="0.84095">
        <ele>142.89</ele>
        <time>2013-01-30T13:59:20Z</time>
      </trkpt>
      <trkpt lat="44.60497" lon="0.84062">
        <ele>144.82</ele>
        <time>2013-01-30T13:59:25Z</time>
      </trkpt>
      <trkpt lat="44.60477" lon="0.84047">
        <ele>145.78</ele>
        <time>2013-01-30T13:59:31Z</time>
      </trkpt>
      <trkpt lat="44.60413" lon="0.84079">
        <ele>145.3</ele>
        <time>2013-01-30T13:59:42Z</time>
      </trkpt>
      <trkpt lat="44.60393" lon="0.84083">
        <ele>144.82</ele>
        <time>2013-01-30T13:59:45Z</time>
      </trkpt>
      <trkpt lat="44.60368" lon="0.84082">
        <ele>143.85</ele>
        <time>2013-01-30T13:59:49Z</time>
      </trkpt>
      <trkpt lat="44.60341" lon="0.84085">
        <ele>143.37</ele>
        <time>2013-01-30T13:59:54Z</time>
      </trkpt>
      <trkpt lat="44.603" lon="0.84102">
        <ele>144.34</ele>
        <time>2013-01-30T14:00:03Z</time>
      </trkpt>
      <trkpt lat="44.60282" lon="0.84103">
        <ele>143.85</ele>
        <time>2013-01-30T14:00:07Z</time>
      </trkpt>
      <trkpt lat="44.60253" lon="0.84098">
        <ele>141.93</ele>
        <time>2013-01-30T14:00:13Z</time>
      </trkpt>
      <trkpt lat="44.6024" lon="0.84092">
        <ele>140.01</ele>
        <time>2013-01-30T14:00:16Z</time>
      </trkpt>
      <trkpt lat="44.60221" lon="0.84077">
        <ele>136.64</ele>
        <time>2013-01-30T14:00:20Z</time>
      </trkpt>
      <trkpt lat="44.60199" lon="0.84083">
        <ele>132.32</ele>
        <time>2013-01-30T14:00:26Z</time>
      </trkpt>
      <trkpt lat="44.60172" lon="0.84099">
        <ele>127.51</ele>
        <time>2013-01-30T14:00:34Z</time>
      </trkpt>
      <trkpt lat="44.60162" lon="0.84133">
        <ele>124.15</ele>
        <time>2013-01-30T14:00:40Z</time>
      </trkpt>
      <trkpt lat="44.60152" lon="0.84141">
        <ele>121.74</ele>
        <time>2013-01-30T14:00:43Z</time>
      </trkpt>
      <trkpt lat="44.60142" lon="0.84146">
        <ele>120.3</ele>
        <time>2013-01-30T14:00:49Z</time>
      </trkpt>
      <trkpt lat="44.60134" lon="0.84173">
        <ele>118.38</ele>
        <time>2013-01-30T14:00:56Z</time>
      </trkpt>
      <trkpt lat="44.60112" lon="0.84256">
        <ele>119.34</ele>
        <time>2013-01-30T14:01:12Z</time>
      </trkpt>
      <trkpt lat="44.60086" lon="0.84295">
        <ele>120.78</ele>
        <time>2013-01-30T14:01:22Z</time>
      </trkpt>
      <trkpt lat="44.60057" lon="0.84265">
        <ele>120.3</ele>
        <time>2013-01-30T14:01:31Z</time>
      </trkpt>
      <trkpt lat="44.60022" lon="0.84256">
        <ele>124.15</ele>
        <time>2013-01-30T14:01:42Z</time>
      </trkpt>
      <trkpt lat="44.59976" lon="0.84248">
        <ele>132.8</ele>
        <time>2013-01-30T14:01:57Z</time>
      </trkpt>
      <trkpt lat="44.59948" lon="0.84209">
        <ele>138.09</ele>
        <time>2013-01-30T14:02:09Z</time>
      </trkpt>
      <trkpt lat="44.59924" lon="0.84152">
        <ele>141.45</ele>
        <time>2013-01-30T14:02:24Z</time>
      </trkpt>
      <trkpt lat="44.59901" lon="0.84096">
        <ele>144.34</ele>
        <time>2013-01-30T14:02:41Z</time>
      </trkpt>
      <trkpt lat="44.59872" lon="0.8404">
        <ele>142.89</ele>
        <time>2013-01-30T14:02:57Z</time>
      </trkpt>
      <trkpt lat="44.59851" lon="0.84006">
        <ele>141.93</ele>
        <time>2013-01-30T14:03:06Z</time>
      </trkpt>
      <trkpt lat="44.59826" lon="0.84044">
        <ele>140.97</ele>
        <time>2013-01-30T14:03:18Z</time>
      </trkpt>
      <trkpt lat="44.59796" lon="0.84076">
        <ele>140.01</ele>
        <time>2013-01-30T14:03:29Z</time>
      </trkpt>
      <trkpt lat="44.59792" lon="0.84079">
        <ele>139.05</ele>
        <time>2013-01-30T14:03:39Z</time>
      </trkpt>
      <trkpt lat="44.59771" lon="0.84104">
        <ele>138.09</ele>
        <time>2013-01-30T14:03:51Z</time>
      </trkpt>
      <trkpt lat="44.59742" lon="0.84153">
        <ele>139.05</ele>
        <time>2013-01-30T14:04:05Z</time>
      </trkpt>
      <trkpt lat="44.59714" lon="0.84195">
        <ele>139.53</ele>
        <time>2013-01-30T14:04:16Z</time>
      </trkpt>
      <trkpt lat="44.59683" lon="0.84235">
        <ele>140.97</ele>
        <time>2013-01-30T14:04:28Z</time>
      </trkpt>
      <trkpt lat="44.59652" lon="0.84274">
        <ele>142.89</ele>
        <time>2013-01-30T14:04:40Z</time>
      </trkpt>
      <trkpt lat="44.59627" lon="0.84315">
        <ele>143.85</ele>
        <time>2013-01-30T14:04:53Z</time>
      </trkpt>
      <trkpt lat="44.59588" lon="0.84352">
        <ele>145.78</ele>
        <time>2013-01-30T14:05:07Z</time>
      </trkpt>
      <trkpt lat="44.59573" lon="0.84362">
        <ele>146.26</ele>
        <time>2013-01-30T14:05:12Z</time>
      </trkpt>
      <trkpt lat="44.59563" lon="0.84375">
        <ele>146.74</ele>
        <time>2013-01-30T14:05:16Z</time>
      </trkpt>
      <trkpt lat="44.59515" lon="0.84423">
        <ele>148.66</ele>
        <time>2013-01-30T14:05:31Z</time>
      </trkpt>
      <trkpt lat="44.59466" lon="0.84474">
        <ele>151.54</ele>
        <time>2013-01-30T14:05:46Z</time>
      </trkpt>
      <trkpt lat="44.59427" lon="0.84522">
        <ele>153.95</ele>
        <time>2013-01-30T14:06:01Z</time>
      </trkpt>
      <trkpt lat="44.59395" lon="0.84553">
        <ele>152.51</ele>
        <time>2013-01-30T14:06:12Z</time>
      </trkpt>
      <trkpt lat="44.594" lon="0.84595">
        <ele>155.39</ele>
        <time>2013-01-30T14:06:21Z</time>
      </trkpt>
      <trkpt lat="44.59419" lon="0.84662">
        <ele>153.47</ele>
        <time>2013-01-30T14:06:35Z</time>
      </trkpt>
      <trkpt lat="44.59432" lon="0.84708">
        <ele>153.95</ele>
        <time>2013-01-30T14:06:46Z</time>
      </trkpt>
      <trkpt lat="44.59442" lon="0.84748">
        <ele>155.39</ele>
        <time>2013-01-30T14:06:58Z</time>
      </trkpt>
      <trkpt lat="44.59445" lon="0.84765">
        <ele>155.87</ele>
        <time>2013-01-30T14:07:03Z</time>
      </trkpt>
      <trkpt lat="44.59422" lon="0.84799">
        <ele>155.39</ele>
        <time>2013-01-30T14:07:16Z</time>
      </trkpt>
      <trkpt lat="44.59399" lon="0.8484">
        <ele>156.83</ele>
        <time>2013-01-30T14:07:29Z</time>
      </trkpt>
      <trkpt lat="44.594" lon="0.84878">
        <ele>157.31</ele>
        <time>2013-01-30T14:07:36Z</time>
      </trkpt>
      <trkpt lat="44.59392" lon="0.849">
        <ele>157.79</ele>
        <time>2013-01-30T14:07:40Z</time>
      </trkpt>
      <trkpt lat="44.59333" lon="0.84965">
        <ele>159.72</ele>
        <time>2013-01-30T14:07:56Z</time>
      </trkpt>
      <trkpt lat="44.59325" lon="0.84988">
        <ele>158.75</ele>
        <time>2013-01-30T14:08:00Z</time>
      </trkpt>
      <trkpt lat="44.59308" lon="0.85022">
        <ele>157.31</ele>
        <time>2013-01-30T14:08:05Z</time>
      </trkpt>
      <trkpt lat="44.59257" lon="0.85062">
        <ele>156.83</ele>
        <time>2013-01-30T14:08:14Z</time>
      </trkpt>
      <trkpt lat="44.59245" lon="0.85067">
        <ele>157.31</ele>
        <time>2013-01-30T14:08:16Z</time>
      </trkpt>
      <trkpt lat="44.5918" lon="0.85114">
        <ele>159.72</ele>
        <time>2013-01-30T14:08:29Z</time>
      </trkpt>
      <trkpt lat="44.59134" lon="0.85148">
        <ele>160.68</ele>
        <time>2013-01-30T14:08:39Z</time>
      </trkpt>
      <trkpt lat="44.59053" lon="0.85173">
        <ele>162.6</ele>
        <time>2013-01-30T14:08:56Z</time>
      </trkpt>
      <trkpt lat="44.5904" lon="0.85178">
        <ele>162.6</ele>
        <time>2013-01-30T14:08:59Z</time>
      </trkpt>
      <trkpt lat="44.59006" lon="0.85199">
        <ele>163.08</ele>
        <time>2013-01-30T14:09:07Z</time>
      </trkpt>
      <trkpt lat="44.58979" lon="0.85205">
        <ele>164.04</ele>
        <time>2013-01-30T14:09:13Z</time>
      </trkpt>
      <trkpt lat="44.58963" lon="0.8521">
        <ele>165</ele>
        <time>2013-01-30T14:09:17Z</time>
      </trkpt>
      <trkpt lat="44.58925" lon="0.85208">
        <ele>168.37</ele>
        <time>2013-01-30T14:09:26Z</time>
      </trkpt>
      <trkpt lat="44.58908" lon="0.85186">
        <ele>170.29</ele>
        <time>2013-01-30T14:09:32Z</time>
      </trkpt>
      <trkpt lat="44.58874" lon="0.85175">
        <ele>175.1</ele>
        <time>2013-01-30T14:09:42Z</time>
      </trkpt>
      <trkpt lat="44.58867" lon="0.85174">
        <ele>176.06</ele>
        <time>2013-01-30T14:09:44Z</time>
      </trkpt>
      <trkpt lat="44.58862" lon="0.8517">
        <ele>176.54</ele>
        <time>2013-01-30T14:09:46Z</time>
      </trkpt>
      <trkpt lat="44.58852" lon="0.85151">
        <ele>175.1</ele>
        <time>2013-01-30T14:09:51Z</time>
      </trkpt>
      <trkpt lat="44.58832" lon="0.85108">
        <ele>172.69</ele>
        <time>2013-01-30T14:09:59Z</time>
      </trkpt>
      <trkpt lat="44.58817" lon="0.85093">
        <ele>173.66</ele>
        <time>2013-01-30T14:10:03Z</time>
      </trkpt>
      <trkpt lat="44.58801" lon="0.85088">
        <ele>174.14</ele>
        <time>2013-01-30T14:10:06Z</time>
      </trkpt>
      <trkpt lat="44.5878" lon="0.85072">
        <ele>173.66</ele>
        <time>2013-01-30T14:10:10Z</time>
      </trkpt>
      <trkpt lat="44.58763" lon="0.85044">
        <ele>172.21</ele>
        <time>2013-01-30T14:10:14Z</time>
      </trkpt>
      <trkpt lat="44.58759" lon="0.85">
        <ele>171.25</ele>
        <time>2013-01-30T14:10:21Z</time>
      </trkpt>
      <trkpt lat="44.58761" lon="0.84988">
        <ele>171.73</ele>
        <time>2013-01-30T14:10:23Z</time>
      </trkpt>
      <trkpt lat="44.58763" lon="0.84975">
        <ele>173.17</ele>
        <time>2013-01-30T14:10:25Z</time>
      </trkpt>
      <trkpt lat="44.58768" lon="0.84963">
        <ele>173.66</ele>
        <time>2013-01-30T14:10:27Z</time>
      </trkpt>
      <trkpt lat="44.58783" lon="0.84927">
        <ele>173.66</ele>
        <time>2013-01-30T14:10:32Z</time>
      </trkpt>
      <trkpt lat="44.5881" lon="0.84881">
        <ele>173.17</ele>
        <time>2013-01-30T14:10:39Z</time>
      </trkpt>
      <trkpt lat="44.58819" lon="0.84861">
        <ele>172.69</ele>
        <time>2013-01-30T14:10:41Z</time>
      </trkpt>
      <trkpt lat="44.58844" lon="0.84787">
        <ele>171.25</ele>
        <time>2013-01-30T14:10:48Z</time>
      </trkpt>
      <trkpt lat="44.58861" lon="0.84749">
        <ele>170.77</ele>
        <time>2013-01-30T14:10:52Z</time>
      </trkpt>
      <trkpt lat="44.58891" lon="0.84708">
        <ele>169.33</ele>
        <time>2013-01-30T14:10:57Z</time>
      </trkpt>
      <trkpt lat="44.58905" lon="0.84666">
        <ele>166.93</ele>
        <time>2013-01-30T14:11:04Z</time>
      </trkpt>
      <trkpt lat="44.58911" lon="0.84621">
        <ele>163.56</ele>
        <time>2013-01-30T14:11:10Z</time>
      </trkpt>
      <trkpt lat="44.58912" lon="0.84603">
        <ele>163.08</ele>
        <time>2013-01-30T14:11:12Z</time>
      </trkpt>
      <trkpt lat="44.5892" lon="0.84546">
        <ele>161.64</ele>
        <time>2013-01-30T14:11:18Z</time>
      </trkpt>
      <trkpt lat="44.58912" lon="0.8449">
        <ele>159.24</ele>
        <time>2013-01-30T14:11:27Z</time>
      </trkpt>
      <trkpt lat="44.58912" lon="0.84487">
        <ele>159.24</ele>
        <time>2013-01-30T14:11:28Z</time>
      </trkpt>
      <trkpt lat="44.58912" lon="0.84476">
        <ele>158.75</ele>
        <time>2013-01-30T14:11:31Z</time>
      </trkpt>
      <trkpt lat="44.58903" lon="0.84426">
        <ele>156.83</ele>
        <time>2013-01-30T14:11:38Z</time>
      </trkpt>
      <trkpt lat="44.58899" lon="0.84393">
        <ele>154.91</ele>
        <time>2013-01-30T14:11:42Z</time>
      </trkpt>
      <trkpt lat="44.58877" lon="0.84319">
        <ele>150.1</ele>
        <time>2013-01-30T14:11:52Z</time>
      </trkpt>
      <trkpt lat="44.58879" lon="0.84266">
        <ele>148.18</ele>
        <time>2013-01-30T14:12:03Z</time>
      </trkpt>
      <trkpt lat="44.58894" lon="0.84216">
        <ele>150.58</ele>
        <time>2013-01-30T14:12:14Z</time>
      </trkpt>
      <trkpt lat="44.58903" lon="0.84157">
        <ele>152.51</ele>
        <time>2013-01-30T14:12:26Z</time>
      </trkpt>
      <trkpt lat="44.58905" lon="0.84146">
        <ele>152.51</ele>
        <time>2013-01-30T14:12:38Z</time>
      </trkpt>
      <trkpt lat="44.58905" lon="0.84142">
        <ele>150.58</ele>
        <time>2013-01-30T14:13:00Z</time>
      </trkpt>
      <trkpt lat="44.58904" lon="0.84143">
        <ele>152.03</ele>
        <time>2013-01-30T14:13:25Z</time>
      </trkpt>
      <trkpt lat="44.58902" lon="0.84145">
        <ele>151.54</ele>
        <time>2013-01-30T14:14:05Z</time>
      </trkpt>
      <trkpt lat="44.58903" lon="0.84146">
        <ele>150.1</ele>
        <time>2013-01-30T14:14:39Z</time>
      </trkpt>
      <trkpt lat="44.58903" lon="0.84147">
        <ele>150.58</ele>
        <time>2013-01-30T14:14:50Z</time>
      </trkpt>
      <trkpt lat="44.58904" lon="0.84146">
        <ele>150.1</ele>
        <time>2013-01-30T14:15:18Z</time>
      </trkpt>
      <trkpt lat="44.58917" lon="0.84123">
        <ele>148.66</ele>
        <time>2013-01-30T14:15:28Z</time>
      </trkpt>
      <trkpt lat="44.58921" lon="0.84118">
        <ele>149.14</ele>
        <time>2013-01-30T14:15:30Z</time>
      </trkpt>
      <trkpt lat="44.58913" lon="0.841">
        <ele>149.14</ele>
        <time>2013-01-30T14:15:37Z</time>
      </trkpt>
      <trkpt lat="44.58873" lon="0.84055">
        <ele>148.18</ele>
        <time>2013-01-30T14:15:50Z</time>
      </trkpt>
      <trkpt lat="44.58867" lon="0.84049">
        <ele>148.18</ele>
        <time>2013-01-30T14:15:52Z</time>
      </trkpt>
      <trkpt lat="44.5884" lon="0.83992">
        <ele>147.22</ele>
        <time>2013-01-30T14:16:03Z</time>
      </trkpt>
      <trkpt lat="44.58822" lon="0.83955">
        <ele>145.3</ele>
        <time>2013-01-30T14:16:13Z</time>
      </trkpt>
      <trkpt lat="44.58804" lon="0.83923">
        <ele>140.49</ele>
        <time>2013-01-30T14:16:22Z</time>
      </trkpt>
      <trkpt lat="44.58782" lon="0.839">
        <ele>138.09</ele>
        <time>2013-01-30T14:16:27Z</time>
      </trkpt>
      <trkpt lat="44.58746" lon="0.83853">
        <ele>133.76</ele>
        <time>2013-01-30T14:16:36Z</time>
      </trkpt>
      <trkpt lat="44.58734" lon="0.83847">
        <ele>134.72</ele>
        <time>2013-01-30T14:16:40Z</time>
      </trkpt>
      <trkpt lat="44.58698" lon="0.83831">
        <ele>135.2</ele>
        <time>2013-01-30T14:16:47Z</time>
      </trkpt>
      <trkpt lat="44.58663" lon="0.83804">
        <ele>133.28</ele>
        <time>2013-01-30T14:16:58Z</time>
      </trkpt>
      <trkpt lat="44.58635" lon="0.83774">
        <ele>131.84</ele>
        <time>2013-01-30T14:17:09Z</time>
      </trkpt>
      <trkpt lat="44.58611" lon="0.8374">
        <ele>129.43</ele>
        <time>2013-01-30T14:17:18Z</time>
      </trkpt>
      <trkpt lat="44.5858" lon="0.8375">
        <ele>127.51</ele>
        <time>2013-01-30T14:17:26Z</time>
      </trkpt>
      <trkpt lat="44.58511" lon="0.83792">
        <ele>129.43</ele>
        <time>2013-01-30T14:17:44Z</time>
      </trkpt>
      <trkpt lat="44.58454" lon="0.83839">
        <ele>132.8</ele>
        <time>2013-01-30T14:18:00Z</time>
      </trkpt>
      <trkpt lat="44.58446" lon="0.83846">
        <ele>133.28</ele>
        <time>2013-01-30T14:18:02Z</time>
      </trkpt>
      <trkpt lat="44.58421" lon="0.83884">
        <ele>133.76</ele>
        <time>2013-01-30T14:18:12Z</time>
      </trkpt>
      <trkpt lat="44.5839" lon="0.83876">
        <ele>138.09</ele>
        <time>2013-01-30T14:18:25Z</time>
      </trkpt>
      <trkpt lat="44.58366" lon="0.83858">
        <ele>143.85</ele>
        <time>2013-01-30T14:18:36Z</time>
      </trkpt>
      <trkpt lat="44.5834" lon="0.83836">
        <ele>146.74</ele>
        <time>2013-01-30T14:18:49Z</time>
      </trkpt>
      <trkpt lat="44.58328" lon="0.83824">
        <ele>147.7</ele>
        <time>2013-01-30T14:18:55Z</time>
      </trkpt>
      <trkpt lat="44.58301" lon="0.83805">
        <ele>149.14</ele>
        <time>2013-01-30T14:19:09Z</time>
      </trkpt>
      <trkpt lat="44.58264" lon="0.83778">
        <ele>151.54</ele>
        <time>2013-01-30T14:19:25Z</time>
      </trkpt>
      <trkpt lat="44.58256" lon="0.83771">
        <ele>151.54</ele>
        <time>2013-01-30T14:19:29Z</time>
      </trkpt>
      <trkpt lat="44.58258" lon="0.83752">
        <ele>152.03</ele>
        <time>2013-01-30T14:19:36Z</time>
      </trkpt>
      <trkpt lat="44.58239" lon="0.83743">
        <ele>151.54</ele>
        <time>2013-01-30T14:19:45Z</time>
      </trkpt>
      <trkpt lat="44.58198" lon="0.83742">
        <ele>153.95</ele>
        <time>2013-01-30T14:19:58Z</time>
      </trkpt>
      <trkpt lat="44.58162" lon="0.83739">
        <ele>154.43</ele>
        <time>2013-01-30T14:20:07Z</time>
      </trkpt>
      <trkpt lat="44.58095" lon="0.83735">
        <ele>153.95</ele>
        <time>2013-01-30T14:20:21Z</time>
      </trkpt>
      <trkpt lat="44.58075" lon="0.83733">
        <ele>154.91</ele>
        <time>2013-01-30T14:20:25Z</time>
      </trkpt>
      <trkpt lat="44.58029" lon="0.83729">
        <ele>156.35</ele>
        <time>2013-01-30T14:20:36Z</time>
      </trkpt>
      <trkpt lat="44.57995" lon="0.83718">
        <ele>157.31</ele>
        <time>2013-01-30T14:20:45Z</time>
      </trkpt>
      <trkpt lat="44.57953" lon="0.83708">
        <ele>161.64</ele>
        <time>2013-01-30T14:20:56Z</time>
      </trkpt>
      <trkpt lat="44.57911" lon="0.83709">
        <ele>166.45</ele>
        <time>2013-01-30T14:21:08Z</time>
      </trkpt>
      <trkpt lat="44.57868" lon="0.83701">
        <ele>168.85</ele>
        <time>2013-01-30T14:21:21Z</time>
      </trkpt>
      <trkpt lat="44.57837" lon="0.83723">
        <ele>168.37</ele>
        <time>2013-01-30T14:21:33Z</time>
      </trkpt>
      <trkpt lat="44.57814" lon="0.8374">
        <ele>167.89</ele>
        <time>2013-01-30T14:21:42Z</time>
      </trkpt>
      <trkpt lat="44.57807" lon="0.83735">
        <ele>166.45</ele>
        <time>2013-01-30T14:21:46Z</time>
      </trkpt>
      <trkpt lat="44.57805" lon="0.8373">
        <ele>165.96</ele>
        <time>2013-01-30T14:21:48Z</time>
      </trkpt>
      <trkpt lat="44.57776" lon="0.83727">
        <ele>166.93</ele>
        <time>2013-01-30T14:21:57Z</time>
      </trkpt>
      <trkpt lat="44.57735" lon="0.83732">
        <ele>166.45</ele>
        <time>2013-01-30T14:22:09Z</time>
      </trkpt>
      <trkpt lat="44.57722" lon="0.83728">
        <ele>166.93</ele>
        <time>2013-01-30T14:22:12Z</time>
      </trkpt>
      <trkpt lat="44.57702" lon="0.83726">
        <ele>166.45</ele>
        <time>2013-01-30T14:22:16Z</time>
      </trkpt>
      <trkpt lat="44.57681" lon="0.83721">
        <ele>165.96</ele>
        <time>2013-01-30T14:22:20Z</time>
      </trkpt>
      <trkpt lat="44.57659" lon="0.83718">
        <ele>165.96</ele>
        <time>2013-01-30T14:22:24Z</time>
      </trkpt>
      <trkpt lat="44.57637" lon="0.83715">
        <ele>165</ele>
        <time>2013-01-30T14:22:28Z</time>
      </trkpt>
      <trkpt lat="44.57623" lon="0.83713">
        <ele>164.04</ele>
        <time>2013-01-30T14:22:31Z</time>
      </trkpt>
      <trkpt lat="44.57614" lon="0.83712">
        <ele>163.56</ele>
        <time>2013-01-30T14:22:33Z</time>
      </trkpt>
      <trkpt lat="44.57594" lon="0.83718">
        <ele>162.6</ele>
        <time>2013-01-30T14:22:37Z</time>
      </trkpt>
      <trkpt lat="44.57566" lon="0.83731">
        <ele>160.68</ele>
        <time>2013-01-30T14:22:42Z</time>
      </trkpt>
      <trkpt lat="44.57546" lon="0.8374">
        <ele>159.72</ele>
        <time>2013-01-30T14:22:45Z</time>
      </trkpt>
      <trkpt lat="44.57494" lon="0.83777">
        <ele>156.83</ele>
        <time>2013-01-30T14:22:53Z</time>
      </trkpt>
      <trkpt lat="44.57481" lon="0.83784">
        <ele>156.35</ele>
        <time>2013-01-30T14:22:55Z</time>
      </trkpt>
      <trkpt lat="44.57468" lon="0.83814">
        <ele>154.91</ele>
        <time>2013-01-30T14:23:01Z</time>
      </trkpt>
      <trkpt lat="44.57458" lon="0.83847">
        <ele>152.99</ele>
        <time>2013-01-30T14:23:05Z</time>
      </trkpt>
      <trkpt lat="44.57419" lon="0.83874">
        <ele>148.18</ele>
        <time>2013-01-30T14:23:13Z</time>
      </trkpt>
      <trkpt lat="44.57414" lon="0.83876">
        <ele>146.26</ele>
        <time>2013-01-30T14:23:23Z</time>
      </trkpt>
      <trkpt lat="44.57414" lon="0.83877">
        <ele>143.37</ele>
        <time>2013-01-30T14:23:35Z</time>
      </trkpt>
      <trkpt lat="44.5741" lon="0.83891">
        <ele>143.85</ele>
        <time>2013-01-30T14:23:41Z</time>
      </trkpt>
      <trkpt lat="44.57404" lon="0.83917">
        <ele>145.78</ele>
        <time>2013-01-30T14:23:50Z</time>
      </trkpt>
      <trkpt lat="44.57389" lon="0.83951">
        <ele>147.22</ele>
        <time>2013-01-30T14:24:00Z</time>
      </trkpt>
      <trkpt lat="44.5738" lon="0.84016">
        <ele>146.74</ele>
        <time>2013-01-30T14:24:14Z</time>
      </trkpt>
      <trkpt lat="44.57364" lon="0.84048">
        <ele>148.66</ele>
        <time>2013-01-30T14:24:25Z</time>
      </trkpt>
      <trkpt lat="44.57352" lon="0.84061">
        <ele>152.99</ele>
        <time>2013-01-30T14:24:38Z</time>
      </trkpt>
      <trkpt lat="44.57349" lon="0.84064">
        <ele>152.99</ele>
        <time>2013-01-30T14:24:51Z</time>
      </trkpt>
      <trkpt lat="44.57346" lon="0.84068">
        <ele>153.47</ele>
        <time>2013-01-30T14:25:01Z</time>
      </trkpt>
      <trkpt lat="44.57342" lon="0.8407">
        <ele>152.99</ele>
        <time>2013-01-30T14:25:06Z</time>
      </trkpt>
      <trkpt lat="44.57326" lon="0.84121">
        <ele>154.43</ele>
        <time>2013-01-30T14:25:21Z</time>
      </trkpt>
      <trkpt lat="44.57307" lon="0.84143">
        <ele>154.43</ele>
        <time>2013-01-30T14:25:31Z</time>
      </trkpt>
      <trkpt lat="44.57293" lon="0.8416">
        <ele>154.43</ele>
        <time>2013-01-30T14:25:41Z</time>
      </trkpt>
      <trkpt lat="44.5727" lon="0.84193">
        <ele>156.35</ele>
        <time>2013-01-30T14:25:51Z</time>
      </trkpt>
      <trkpt lat="44.57268" lon="0.84229">
        <ele>155.87</ele>
        <time>2013-01-30T14:26:00Z</time>
      </trkpt>
      <trkpt lat="44.57245" lon="0.84256">
        <ele>155.87</ele>
        <time>2013-01-30T14:26:09Z</time>
      </trkpt>
      <trkpt lat="44.57234" lon="0.84304">
        <ele>157.31</ele>
        <time>2013-01-30T14:26:20Z</time>
      </trkpt>
      <trkpt lat="44.57223" lon="0.84353">
        <ele>156.35</ele>
        <time>2013-01-30T14:26:30Z</time>
      </trkpt>
      <trkpt lat="44.57209" lon="0.84409">
        <ele>158.27</ele>
        <time>2013-01-30T14:26:41Z</time>
      </trkpt>
      <trkpt lat="44.57208" lon="0.84449">
        <ele>159.72</ele>
        <time>2013-01-30T14:26:49Z</time>
      </trkpt>
      <trkpt lat="44.57209" lon="0.84512">
        <ele>163.08</ele>
        <time>2013-01-30T14:27:02Z</time>
      </trkpt>
      <trkpt lat="44.57218" lon="0.84595">
        <ele>165</ele>
        <time>2013-01-30T14:27:17Z</time>
      </trkpt>
      <trkpt lat="44.57218" lon="0.8468">
        <ele>167.41</ele>
        <time>2013-01-30T14:27:32Z</time>
      </trkpt>
      <trkpt lat="44.57218" lon="0.84692">
        <ele>167.89</ele>
        <time>2013-01-30T14:27:34Z</time>
      </trkpt>
      <trkpt lat="44.57219" lon="0.84722">
        <ele>168.37</ele>
        <time>2013-01-30T14:27:39Z</time>
      </trkpt>
      <trkpt lat="44.57222" lon="0.84748">
        <ele>168.85</ele>
        <time>2013-01-30T14:27:43Z</time>
      </trkpt>
      <trkpt lat="44.57226" lon="0.84826">
        <ele>169.33</ele>
        <time>2013-01-30T14:27:54Z</time>
      </trkpt>
      <trkpt lat="44.57242" lon="0.84888">
        <ele>167.89</ele>
        <time>2013-01-30T14:28:02Z</time>
      </trkpt>
      <trkpt lat="44.57244" lon="0.84908">
        <ele>167.41</ele>
        <time>2013-01-30T14:28:04Z</time>
      </trkpt>
      <trkpt lat="44.57246" lon="0.84937">
        <ele>165.96</ele>
        <time>2013-01-30T14:28:07Z</time>
      </trkpt>
      <trkpt lat="44.57263" lon="0.85006">
        <ele>164.52</ele>
        <time>2013-01-30T14:28:14Z</time>
      </trkpt>
      <trkpt lat="44.57272" lon="0.85042">
        <ele>164.52</ele>
        <time>2013-01-30T14:28:18Z</time>
      </trkpt>
      <trkpt lat="44.57327" lon="0.85162">
        <ele>168.37</ele>
        <time>2013-01-30T14:28:33Z</time>
      </trkpt>
      <trkpt lat="44.57337" lon="0.85184">
        <ele>169.33</ele>
        <time>2013-01-30T14:28:36Z</time>
      </trkpt>
      <trkpt lat="44.57375" lon="0.85268">
        <ele>171.25</ele>
        <time>2013-01-30T14:28:50Z</time>
      </trkpt>
      <trkpt lat="44.57379" lon="0.85271">
        <ele>171.25</ele>
        <time>2013-01-30T14:28:51Z</time>
      </trkpt>
      <trkpt lat="44.57385" lon="0.85294">
        <ele>171.73</ele>
        <time>2013-01-30T14:28:57Z</time>
      </trkpt>
      <trkpt lat="44.57396" lon="0.8532">
        <ele>171.25</ele>
        <time>2013-01-30T14:29:02Z</time>
      </trkpt>
      <trkpt lat="44.57385" lon="0.85339">
        <ele>170.29</ele>
        <time>2013-01-30T14:29:07Z</time>
      </trkpt>
      <trkpt lat="44.57363" lon="0.85365">
        <ele>168.85</ele>
        <time>2013-01-30T14:29:12Z</time>
      </trkpt>
      <trkpt lat="44.57347" lon="0.85385">
        <ele>168.85</ele>
        <time>2013-01-30T14:29:20Z</time>
      </trkpt>
      <trkpt lat="44.57351" lon="0.85407">
        <ele>169.33</ele>
        <time>2013-01-30T14:29:26Z</time>
      </trkpt>
      <trkpt lat="44.57359" lon="0.85431">
        <ele>170.77</ele>
        <time>2013-01-30T14:29:32Z</time>
      </trkpt>
      <trkpt lat="44.57382" lon="0.85441">
        <ele>172.69</ele>
        <time>2013-01-30T14:29:42Z</time>
      </trkpt>
      <trkpt lat="44.57384" lon="0.85441">
        <ele>173.17</ele>
        <time>2013-01-30T14:29:44Z</time>
      </trkpt>
      <trkpt lat="44.57395" lon="0.85457">
        <ele>176.06</ele>
        <time>2013-01-30T14:29:53Z</time>
      </trkpt>
      <trkpt lat="44.57403" lon="0.85476">
        <ele>177.02</ele>
        <time>2013-01-30T14:29:58Z</time>
      </trkpt>
      <trkpt lat="44.57405" lon="0.85538">
        <ele>175.58</ele>
        <time>2013-01-30T14:30:11Z</time>
      </trkpt>
      <trkpt lat="44.57405" lon="0.85592">
        <ele>176.54</ele>
        <time>2013-01-30T14:30:22Z</time>
      </trkpt>
      <trkpt lat="44.57408" lon="0.85658">
        <ele>177.5</ele>
        <time>2013-01-30T14:30:34Z</time>
      </trkpt>
      <trkpt lat="44.57408" lon="0.85718">
        <ele>180.87</ele>
        <time>2013-01-30T14:30:45Z</time>
      </trkpt>
      <trkpt lat="44.57407" lon="0.85729">
        <ele>181.35</ele>
        <time>2013-01-30T14:30:47Z</time>
      </trkpt>
      <trkpt lat="44.5741" lon="0.85754">
        <ele>181.83</ele>
        <time>2013-01-30T14:30:51Z</time>
      </trkpt>
      <trkpt lat="44.57407" lon="0.85793">
        <ele>181.83</ele>
        <time>2013-01-30T14:30:57Z</time>
      </trkpt>
      <trkpt lat="44.57394" lon="0.85867">
        <ele>182.31</ele>
        <time>2013-01-30T14:31:11Z</time>
      </trkpt>
      <trkpt lat="44.57377" lon="0.85917">
        <ele>184.71</ele>
        <time>2013-01-30T14:31:23Z</time>
      </trkpt>
      <trkpt lat="44.57353" lon="0.85981">
        <ele>185.19</ele>
        <time>2013-01-30T14:31:36Z</time>
      </trkpt>
      <trkpt lat="44.5734" lon="0.86006">
        <ele>185.67</ele>
        <time>2013-01-30T14:31:41Z</time>
      </trkpt>
      <trkpt lat="44.5733" lon="0.86028">
        <ele>185.67</ele>
        <time>2013-01-30T14:31:45Z</time>
      </trkpt>
      <trkpt lat="44.57316" lon="0.86086">
        <ele>185.67</ele>
        <time>2013-01-30T14:31:55Z</time>
      </trkpt>
      <trkpt lat="44.57314" lon="0.86112">
        <ele>186.15</ele>
        <time>2013-01-30T14:31:59Z</time>
      </trkpt>
      <trkpt lat="44.57316" lon="0.86161">
        <ele>187.59</ele>
        <time>2013-01-30T14:32:06Z</time>
      </trkpt>
      <trkpt lat="44.57324" lon="0.8626">
        <ele>188.56</ele>
        <time>2013-01-30T14:32:21Z</time>
      </trkpt>
      <trkpt lat="44.57333" lon="0.86323">
        <ele>190.48</ele>
        <time>2013-01-30T14:32:32Z</time>
      </trkpt>
      <trkpt lat="44.57343" lon="0.86399">
        <ele>191.92</ele>
        <time>2013-01-30T14:32:46Z</time>
      </trkpt>
      <trkpt lat="44.57355" lon="0.86433">
        <ele>192.4</ele>
        <time>2013-01-30T14:32:54Z</time>
      </trkpt>
      <trkpt lat="44.57343" lon="0.86523">
        <ele>191.92</ele>
        <time>2013-01-30T14:33:08Z</time>
      </trkpt>
      <trkpt lat="44.57337" lon="0.86543">
        <ele>191.92</ele>
        <time>2013-01-30T14:33:11Z</time>
      </trkpt>
      <trkpt lat="44.57303" lon="0.86635">
        <ele>191.44</ele>
        <time>2013-01-30T14:33:26Z</time>
      </trkpt>
      <trkpt lat="44.57261" lon="0.86737">
        <ele>190</ele>
        <time>2013-01-30T14:33:40Z</time>
      </trkpt>
      <trkpt lat="44.57244" lon="0.86776">
        <ele>190</ele>
        <time>2013-01-30T14:33:46Z</time>
      </trkpt>
      <trkpt lat="44.57236" lon="0.86808">
        <ele>189.52</ele>
        <time>2013-01-30T14:33:51Z</time>
      </trkpt>
      <trkpt lat="44.5722" lon="0.86853">
        <ele>188.56</ele>
        <time>2013-01-30T14:33:58Z</time>
      </trkpt>
      <trkpt lat="44.57216" lon="0.8688">
        <ele>189.52</ele>
        <time>2013-01-30T14:34:02Z</time>
      </trkpt>
      <trkpt lat="44.57181" lon="0.86962">
        <ele>193.36</ele>
        <time>2013-01-30T14:34:15Z</time>
      </trkpt>
      <trkpt lat="44.57176" lon="0.86974">
        <ele>193.84</ele>
        <time>2013-01-30T14:34:17Z</time>
      </trkpt>
      <trkpt lat="44.57136" lon="0.87011">
        <ele>193.84</ele>
        <time>2013-01-30T14:34:26Z</time>
      </trkpt>
      <trkpt lat="44.57117" lon="0.87037">
        <ele>194.8</ele>
        <time>2013-01-30T14:34:31Z</time>
      </trkpt>
      <trkpt lat="44.57048" lon="0.87105">
        <ele>198.17</ele>
        <time>2013-01-30T14:34:46Z</time>
      </trkpt>
      <trkpt lat="44.56965" lon="0.87139">
        <ele>199.13</ele>
        <time>2013-01-30T14:35:01Z</time>
      </trkpt>
      <trkpt lat="44.5688" lon="0.87154">
        <ele>197.21</ele>
        <time>2013-01-30T14:35:17Z</time>
      </trkpt>
      <trkpt lat="44.56852" lon="0.87153">
        <ele>196.73</ele>
        <time>2013-01-30T14:35:22Z</time>
      </trkpt>
      <trkpt lat="44.56826" lon="0.87155">
        <ele>196.25</ele>
        <time>2013-01-30T14:35:27Z</time>
      </trkpt>
      <trkpt lat="44.568" lon="0.87165">
        <ele>196.73</ele>
        <time>2013-01-30T14:35:32Z</time>
      </trkpt>
      <trkpt lat="44.56692" lon="0.87193">
        <ele>199.13</ele>
        <time>2013-01-30T14:35:51Z</time>
      </trkpt>
      <trkpt lat="44.56633" lon="0.87204">
        <ele>195.77</ele>
        <time>2013-01-30T14:36:01Z</time>
      </trkpt>
      <trkpt lat="44.56524" lon="0.87209">
        <ele>191.44</ele>
        <time>2013-01-30T14:36:14Z</time>
      </trkpt>
      <trkpt lat="44.56424" lon="0.87209">
        <ele>193.84</ele>
        <time>2013-01-30T14:36:27Z</time>
      </trkpt>
      <trkpt lat="44.56384" lon="0.87217">
        <ele>195.28</ele>
        <time>2013-01-30T14:36:34Z</time>
      </trkpt>
      <trkpt lat="44.56293" lon="0.87263">
        <ele>190.48</ele>
        <time>2013-01-30T14:36:48Z</time>
      </trkpt>
      <trkpt lat="44.56215" lon="0.87275">
        <ele>188.56</ele>
        <time>2013-01-30T14:37:00Z</time>
      </trkpt>
      <trkpt lat="44.56124" lon="0.87265">
        <ele>187.11</ele>
        <time>2013-01-30T14:37:14Z</time>
      </trkpt>
      <trkpt lat="44.56031" lon="0.87261">
        <ele>183.27</ele>
        <time>2013-01-30T14:37:28Z</time>
      </trkpt>
      <trkpt lat="44.55905" lon="0.87264">
        <ele>173.66</ele>
        <time>2013-01-30T14:37:42Z</time>
      </trkpt>
      <trkpt lat="44.55818" lon="0.87278">
        <ele>165.48</ele>
        <time>2013-01-30T14:37:50Z</time>
      </trkpt>
      <trkpt lat="44.55727" lon="0.8735">
        <ele>160.2</ele>
        <time>2013-01-30T14:37:59Z</time>
      </trkpt>
      <trkpt lat="44.55635" lon="0.87449">
        <ele>160.68</ele>
        <time>2013-01-30T14:38:11Z</time>
      </trkpt>
      <trkpt lat="44.55544" lon="0.87524">
        <ele>151.54</ele>
        <time>2013-01-30T14:38:21Z</time>
      </trkpt>
      <trkpt lat="44.55493" lon="0.87561">
        <ele>144.82</ele>
        <time>2013-01-30T14:38:26Z</time>
      </trkpt>
      <trkpt lat="44.5546" lon="0.87621">
        <ele>137.61</ele>
        <time>2013-01-30T14:38:31Z</time>
      </trkpt>
      <trkpt lat="44.55377" lon="0.87724">
        <ele>120.78</ele>
        <time>2013-01-30T14:38:39Z</time>
      </trkpt>
      <trkpt lat="44.55316" lon="0.87792">
        <ele>107.32</ele>
        <time>2013-01-30T14:38:46Z</time>
      </trkpt>
      <trkpt lat="44.55297" lon="0.87813">
        <ele>103.96</ele>
        <time>2013-01-30T14:38:52Z</time>
      </trkpt>
      <trkpt lat="44.55298" lon="0.87812">
        <ele>103.48</ele>
        <time>2013-01-30T14:39:04Z</time>
      </trkpt>
      <trkpt lat="44.55298" lon="0.87812">
        <ele>102.52</ele>
        <time>2013-01-30T14:39:24Z</time>
      </trkpt>
      <trkpt lat="44.55298" lon="0.87813">
        <ele>101.56</ele>
        <time>2013-01-30T14:39:43Z</time>
      </trkpt>
      <trkpt lat="44.55297" lon="0.87824">
        <ele>101.56</ele>
        <time>2013-01-30T14:39:47Z</time>
      </trkpt>
      <trkpt lat="44.55306" lon="0.8792">
        <ele>100.11</ele>
        <time>2013-01-30T14:40:03Z</time>
      </trkpt>
      <trkpt lat="44.55307" lon="0.8804">
        <ele>101.56</ele>
        <time>2013-01-30T14:40:20Z</time>
      </trkpt>
      <trkpt lat="44.55266" lon="0.88115">
        <ele>104.92</ele>
        <time>2013-01-30T14:40:35Z</time>
      </trkpt>
      <trkpt lat="44.55277" lon="0.88138">
        <ele>106.36</ele>
        <time>2013-01-30T14:40:41Z</time>
      </trkpt>
      <trkpt lat="44.55345" lon="0.88193">
        <ele>110.21</ele>
        <time>2013-01-30T14:40:59Z</time>
      </trkpt>
      <trkpt lat="44.55405" lon="0.88244">
        <ele>112.61</ele>
        <time>2013-01-30T14:41:15Z</time>
      </trkpt>
      <trkpt lat="44.55464" lon="0.88324">
        <ele>111.17</ele>
        <time>2013-01-30T14:41:31Z</time>
      </trkpt>
      <trkpt lat="44.55525" lon="0.88439">
        <ele>110.21</ele>
        <time>2013-01-30T14:41:48Z</time>
      </trkpt>
      <trkpt lat="44.55567" lon="0.88526">
        <ele>107.81</ele>
        <time>2013-01-30T14:42:00Z</time>
      </trkpt>
      <trkpt lat="44.55574" lon="0.88537">
        <ele>107.81</ele>
        <time>2013-01-30T14:42:02Z</time>
      </trkpt>
      <trkpt lat="44.55596" lon="0.88558">
        <ele>107.32</ele>
        <time>2013-01-30T14:42:07Z</time>
      </trkpt>
      <trkpt lat="44.55605" lon="0.88563">
        <ele>107.32</ele>
        <time>2013-01-30T14:42:09Z</time>
      </trkpt>
      <trkpt lat="44.55644" lon="0.88564">
        <ele>109.73</ele>
        <time>2013-01-30T14:42:21Z</time>
      </trkpt>
      <trkpt lat="44.55645" lon="0.88578">
        <ele>111.65</ele>
        <time>2013-01-30T14:42:27Z</time>
      </trkpt>
      <trkpt lat="44.55637" lon="0.88606">
        <ele>117.42</ele>
        <time>2013-01-30T14:42:39Z</time>
      </trkpt>
      <trkpt lat="44.55627" lon="0.88626">
        <ele>119.82</ele>
        <time>2013-01-30T14:42:49Z</time>
      </trkpt>
      <trkpt lat="44.55612" lon="0.88647">
        <ele>123.19</ele>
        <time>2013-01-30T14:43:02Z</time>
      </trkpt>
      <trkpt lat="44.55598" lon="0.88669">
        <ele>123.67</ele>
        <time>2013-01-30T14:43:15Z</time>
      </trkpt>
      <trkpt lat="44.55581" lon="0.8869">
        <ele>130.4</ele>
        <time>2013-01-30T14:43:28Z</time>
      </trkpt>
      <trkpt lat="44.55578" lon="0.88691">
        <ele>132.8</ele>
        <time>2013-01-30T14:43:32Z</time>
      </trkpt>
      <trkpt lat="44.55573" lon="0.88689">
        <ele>133.76</ele>
        <time>2013-01-30T14:43:44Z</time>
      </trkpt>
      <trkpt lat="44.55569" lon="0.88687">
        <ele>133.76</ele>
        <time>2013-01-30T14:43:59Z</time>
      </trkpt>
      <trkpt lat="44.55568" lon="0.88687">
        <ele>130.88</ele>
        <time>2013-01-30T14:44:15Z</time>
      </trkpt>
      <trkpt lat="44.55568" lon="0.88688">
        <ele>128.95</ele>
        <time>2013-01-30T14:44:29Z</time>
      </trkpt>
      <trkpt lat="44.55567" lon="0.88686">
        <ele>129.92</ele>
        <time>2013-01-30T14:44:44Z</time>
      </trkpt>
      <trkpt lat="44.55562" lon="0.88685">
        <ele>134.24</ele>
        <time>2013-01-30T14:44:56Z</time>
      </trkpt>
      <trkpt lat="44.55559" lon="0.88688">
        <ele>135.2</ele>
        <time>2013-01-30T14:45:06Z</time>
      </trkpt>
      <trkpt lat="44.55549" lon="0.88701">
        <ele>135.2</ele>
        <time>2013-01-30T14:45:14Z</time>
      </trkpt>
      <trkpt lat="44.55533" lon="0.88733">
        <ele>134.72</ele>
        <time>2013-01-30T14:45:27Z</time>
      </trkpt>
      <trkpt lat="44.55518" lon="0.88753">
        <ele>136.64</ele>
        <time>2013-01-30T14:45:39Z</time>
      </trkpt>
      <trkpt lat="44.55516" lon="0.88756">
        <ele>137.61</ele>
        <time>2013-01-30T14:45:41Z</time>
      </trkpt>
      <trkpt lat="44.555" lon="0.88768">
        <ele>140.97</ele>
        <time>2013-01-30T14:45:53Z</time>
      </trkpt>
      <trkpt lat="44.55488" lon="0.88779">
        <ele>145.78</ele>
        <time>2013-01-30T14:46:07Z</time>
      </trkpt>
      <trkpt lat="44.55485" lon="0.88783">
        <ele>149.62</ele>
        <time>2013-01-30T14:46:24Z</time>
      </trkpt>
      <trkpt lat="44.55476" lon="0.88783">
        <ele>149.62</ele>
        <time>2013-01-30T14:46:40Z</time>
      </trkpt>
      <trkpt lat="44.55476" lon="0.88778">
        <ele>149.62</ele>
        <time>2013-01-30T14:46:44Z</time>
      </trkpt>
      <trkpt lat="44.55484" lon="0.8874">
        <ele>151.54</ele>
        <time>2013-01-30T14:46:58Z</time>
      </trkpt>
      <trkpt lat="44.55493" lon="0.88695">
        <ele>148.66</ele>
        <time>2013-01-30T14:47:10Z</time>
      </trkpt>
      <trkpt lat="44.55493" lon="0.8869">
        <ele>145.3</ele>
        <time>2013-01-30T14:47:22Z</time>
      </trkpt>
      <trkpt lat="44.55493" lon="0.88688">
        <ele>143.37</ele>
        <time>2013-01-30T14:47:47Z</time>
      </trkpt>
      <trkpt lat="44.55493" lon="0.8869">
        <ele>143.85</ele>
        <time>2013-01-30T14:47:53Z</time>
      </trkpt>
      <trkpt lat="44.55489" lon="0.88716">
        <ele>145.78</ele>
        <time>2013-01-30T14:48:04Z</time>
      </trkpt>
      <trkpt lat="44.55477" lon="0.88767">
        <ele>146.74</ele>
        <time>2013-01-30T14:48:16Z</time>
      </trkpt>
      <trkpt lat="44.55465" lon="0.88811">
        <ele>149.62</ele>
        <time>2013-01-30T14:48:26Z</time>
      </trkpt>
      <trkpt lat="44.5545" lon="0.88838">
        <ele>153.47</ele>
        <time>2013-01-30T14:48:37Z</time>
      </trkpt>
      <trkpt lat="44.55442" lon="0.88838">
        <ele>153.47</ele>
        <time>2013-01-30T14:48:42Z</time>
      </trkpt>
      <trkpt lat="44.55437" lon="0.88832">
        <ele>152.99</ele>
        <time>2013-01-30T14:48:47Z</time>
      </trkpt>
      <trkpt lat="44.55417" lon="0.88832">
        <ele>152.99</ele>
        <time>2013-01-30T14:49:01Z</time>
      </trkpt>
      <trkpt lat="44.55409" lon="0.88829">
        <ele>155.39</ele>
        <time>2013-01-30T14:49:08Z</time>
      </trkpt>
      <trkpt lat="44.55406" lon="0.88824">
        <ele>155.87</ele>
        <time>2013-01-30T14:49:12Z</time>
      </trkpt>
      <trkpt lat="44.55401" lon="0.88821">
        <ele>155.87</ele>
        <time>2013-01-30T14:49:17Z</time>
      </trkpt>
      <trkpt lat="44.55382" lon="0.8883">
        <ele>158.27</ele>
        <time>2013-01-30T14:49:32Z</time>
      </trkpt>
      <trkpt lat="44.55378" lon="0.88831">
        <ele>158.75</ele>
        <time>2013-01-30T14:49:36Z</time>
      </trkpt>
      <trkpt lat="44.55372" lon="0.8884">
        <ele>159.72</ele>
        <time>2013-01-30T14:49:41Z</time>
      </trkpt>
      <trkpt lat="44.55354" lon="0.88875">
        <ele>160.2</ele>
        <time>2013-01-30T14:49:56Z</time>
      </trkpt>
      <trkpt lat="44.55348" lon="0.88889">
        <ele>161.16</ele>
        <time>2013-01-30T14:50:01Z</time>
      </trkpt>
      <trkpt lat="44.55345" lon="0.88893">
        <ele>161.16</ele>
        <time>2013-01-30T14:50:04Z</time>
      </trkpt>
      <trkpt lat="44.55343" lon="0.889">
        <ele>161.64</ele>
        <time>2013-01-30T14:50:08Z</time>
      </trkpt>
      <trkpt lat="44.55322" lon="0.88942">
        <ele>165</ele>
        <time>2013-01-30T14:50:23Z</time>
      </trkpt>
      <trkpt lat="44.55303" lon="0.88965">
        <ele>165.96</ele>
        <time>2013-01-30T14:50:32Z</time>
      </trkpt>
      <trkpt lat="44.55295" lon="0.88968">
        <ele>166.93</ele>
        <time>2013-01-30T14:50:45Z</time>
      </trkpt>
      <trkpt lat="44.55286" lon="0.8897">
        <ele>165.96</ele>
        <time>2013-01-30T14:51:05Z</time>
      </trkpt>
      <trkpt lat="44.55259" lon="0.88967">
        <ele>164.04</ele>
        <time>2013-01-30T14:51:19Z</time>
      </trkpt>
      <trkpt lat="44.55261" lon="0.88968">
        <ele>163.56</ele>
        <time>2013-01-30T14:51:29Z</time>
      </trkpt>
      <trkpt lat="44.55289" lon="0.88968">
        <ele>163.08</ele>
        <time>2013-01-30T14:51:40Z</time>
      </trkpt>
      <trkpt lat="44.55292" lon="0.88996">
        <ele>161.16</ele>
        <time>2013-01-30T14:51:47Z</time>
      </trkpt>
      <trkpt lat="44.55278" lon="0.89052">
        <ele>159.72</ele>
        <time>2013-01-30T14:51:58Z</time>
      </trkpt>
      <trkpt lat="44.55255" lon="0.89106">
        <ele>161.16</ele>
        <time>2013-01-30T14:52:11Z</time>
      </trkpt>
      <trkpt lat="44.55234" lon="0.89146">
        <ele>165.96</ele>
        <time>2013-01-30T14:52:23Z</time>
      </trkpt>
      <trkpt lat="44.55223" lon="0.89177">
        <ele>167.89</ele>
        <time>2013-01-30T14:52:33Z</time>
      </trkpt>
      <trkpt lat="44.55223" lon="0.89182">
        <ele>168.37</ele>
        <time>2013-01-30T14:52:36Z</time>
      </trkpt>
      <trkpt lat="44.55237" lon="0.89203">
        <ele>168.37</ele>
        <time>2013-01-30T14:52:46Z</time>
      </trkpt>
      <trkpt lat="44.55247" lon="0.8924">
        <ele>167.41</ele>
        <time>2013-01-30T14:52:53Z</time>
      </trkpt>
      <trkpt lat="44.55241" lon="0.89256">
        <ele>166.93</ele>
        <time>2013-01-30T14:52:58Z</time>
      </trkpt>
      <trkpt lat="44.55239" lon="0.89306">
        <ele>159.24</ele>
        <time>2013-01-30T14:53:07Z</time>
      </trkpt>
      <trkpt lat="44.55241" lon="0.89351">
        <ele>150.58</ele>
        <time>2013-01-30T14:53:15Z</time>
      </trkpt>
      <trkpt lat="44.55255" lon="0.89398">
        <ele>147.7</ele>
        <time>2013-01-30T14:53:28Z</time>
      </trkpt>
      <trkpt lat="44.55261" lon="0.89407">
        <ele>146.74</ele>
        <time>2013-01-30T14:53:41Z</time>
      </trkpt>
      <trkpt lat="44.55259" lon="0.89407">
        <ele>146.26</ele>
        <time>2013-01-30T14:53:53Z</time>
      </trkpt>
      <trkpt lat="44.55245" lon="0.89399">
        <ele>146.26</ele>
        <time>2013-01-30T14:54:01Z</time>
      </trkpt>
      <trkpt lat="44.55208" lon="0.89398">
        <ele>148.66</ele>
        <time>2013-01-30T14:54:15Z</time>
      </trkpt>
      <trkpt lat="44.55179" lon="0.89395">
        <ele>150.1</ele>
        <time>2013-01-30T14:54:28Z</time>
      </trkpt>
      <trkpt lat="44.55172" lon="0.89393">
        <ele>150.58</ele>
        <time>2013-01-30T14:54:32Z</time>
      </trkpt>
      <trkpt lat="44.55168" lon="0.89398">
        <ele>150.58</ele>
        <time>2013-01-30T14:54:42Z</time>
      </trkpt>
      <trkpt lat="44.55168" lon="0.89399">
        <ele>151.06</ele>
        <time>2013-01-30T14:54:50Z</time>
      </trkpt>
      <trkpt lat="44.55169" lon="0.89404">
        <ele>150.58</ele>
        <time>2013-01-30T14:54:55Z</time>
      </trkpt>
      <trkpt lat="44.55175" lon="0.89409">
        <ele>149.62</ele>
        <time>2013-01-30T14:55:02Z</time>
      </trkpt>
      <trkpt lat="44.55193" lon="0.89424">
        <ele>147.7</ele>
        <time>2013-01-30T14:55:11Z</time>
      </trkpt>
      <trkpt lat="44.55183" lon="0.89447">
        <ele>147.22</ele>
        <time>2013-01-30T14:55:21Z</time>
      </trkpt>
      <trkpt lat="44.5516" lon="0.89482">
        <ele>150.1</ele>
        <time>2013-01-30T14:55:34Z</time>
      </trkpt>
      <trkpt lat="44.55129" lon="0.89523">
        <ele>154.43</ele>
        <time>2013-01-30T14:55:49Z</time>
      </trkpt>
      <trkpt lat="44.55095" lon="0.89568">
        <ele>156.83</ele>
        <time>2013-01-30T14:56:05Z</time>
      </trkpt>
      <trkpt lat="44.55066" lon="0.89636">
        <ele>157.31</ele>
        <time>2013-01-30T14:56:20Z</time>
      </trkpt>
      <trkpt lat="44.55033" lon="0.89724">
        <ele>159.72</ele>
        <time>2013-01-30T14:56:38Z</time>
      </trkpt>
      <trkpt lat="44.54994" lon="0.89829">
        <ele>161.64</ele>
        <time>2013-01-30T14:56:57Z</time>
      </trkpt>
      <trkpt lat="44.54969" lon="0.89907">
        <ele>162.6</ele>
        <time>2013-01-30T14:57:11Z</time>
      </trkpt>
      <trkpt lat="44.54941" lon="0.89988">
        <ele>164.04</ele>
        <time>2013-01-30T14:57:26Z</time>
      </trkpt>
      <trkpt lat="44.54938" lon="0.89997">
        <ele>164.52</ele>
        <time>2013-01-30T14:57:28Z</time>
      </trkpt>
      <trkpt lat="44.54951" lon="0.90014">
        <ele>164.52</ele>
        <time>2013-01-30T14:57:34Z</time>
      </trkpt>
      <trkpt lat="44.54997" lon="0.90027">
        <ele>166.93</ele>
        <time>2013-01-30T14:57:47Z</time>
      </trkpt>
      <trkpt lat="44.55013" lon="0.90033">
        <ele>168.85</ele>
        <time>2013-01-30T14:57:54Z</time>
      </trkpt>
      <trkpt lat="44.55017" lon="0.90053">
        <ele>168.85</ele>
        <time>2013-01-30T14:57:59Z</time>
      </trkpt>
      <trkpt lat="44.55011" lon="0.90088">
        <ele>168.37</ele>
        <time>2013-01-30T14:58:05Z</time>
      </trkpt>
      <trkpt lat="44.55024" lon="0.90109">
        <ele>168.37</ele>
        <time>2013-01-30T14:58:12Z</time>
      </trkpt>
      <trkpt lat="44.55038" lon="0.90105">
        <ele>168.37</ele>
        <time>2013-01-30T14:58:16Z</time>
      </trkpt>
      <trkpt lat="44.55049" lon="0.90121">
        <ele>167.89</ele>
        <time>2013-01-30T14:58:24Z</time>
      </trkpt>
      <trkpt lat="44.55055" lon="0.90138">
        <ele>167.89</ele>
        <time>2013-01-30T14:58:29Z</time>
      </trkpt>
      <trkpt lat="44.55066" lon="0.90185">
        <ele>166.93</ele>
        <time>2013-01-30T14:58:36Z</time>
      </trkpt>
      <trkpt lat="44.55066" lon="0.90209">
        <ele>166.93</ele>
        <time>2013-01-30T14:58:39Z</time>
      </trkpt>
      <trkpt lat="44.55054" lon="0.90263">
        <ele>167.41</ele>
        <time>2013-01-30T14:58:46Z</time>
      </trkpt>
      <trkpt lat="44.55047" lon="0.90342">
        <ele>168.37</ele>
        <time>2013-01-30T14:58:56Z</time>
      </trkpt>
      <trkpt lat="44.55045" lon="0.9039">
        <ele>167.89</ele>
        <time>2013-01-30T14:59:02Z</time>
      </trkpt>
      <trkpt lat="44.55044" lon="0.90405">
        <ele>167.89</ele>
        <time>2013-01-30T14:59:04Z</time>
      </trkpt>
      <trkpt lat="44.55042" lon="0.90418">
        <ele>167.89</ele>
        <time>2013-01-30T14:59:06Z</time>
      </trkpt>
      <trkpt lat="44.55036" lon="0.90438">
        <ele>167.41</ele>
        <time>2013-01-30T14:59:11Z</time>
      </trkpt>
      <trkpt lat="44.5504" lon="0.90445">
        <ele>166.93</ele>
        <time>2013-01-30T14:59:16Z</time>
      </trkpt>
      <trkpt lat="44.55083" lon="0.90454">
        <ele>167.89</ele>
        <time>2013-01-30T14:59:28Z</time>
      </trkpt>
      <trkpt lat="44.5516" lon="0.90446">
        <ele>171.73</ele>
        <time>2013-01-30T14:59:45Z</time>
      </trkpt>
      <trkpt lat="44.55247" lon="0.90411">
        <ele>173.66</ele>
        <time>2013-01-30T15:00:02Z</time>
      </trkpt>
      <trkpt lat="44.55319" lon="0.90392">
        <ele>176.06</ele>
        <time>2013-01-30T15:00:17Z</time>
      </trkpt>
      <trkpt lat="44.55372" lon="0.90396">
        <ele>175.58</ele>
        <time>2013-01-30T15:00:30Z</time>
      </trkpt>
      <trkpt lat="44.55392" lon="0.904">
        <ele>174.14</ele>
        <time>2013-01-30T15:00:34Z</time>
      </trkpt>
      <trkpt lat="44.55401" lon="0.9045">
        <ele>172.21</ele>
        <time>2013-01-30T15:00:42Z</time>
      </trkpt>
      <trkpt lat="44.55405" lon="0.90579">
        <ele>170.29</ele>
        <time>2013-01-30T15:00:56Z</time>
      </trkpt>
      <trkpt lat="44.55407" lon="0.90612">
        <ele>170.77</ele>
        <time>2013-01-30T15:01:05Z</time>
      </trkpt>
      <trkpt lat="44.55407" lon="0.90612">
        <ele>171.25</ele>
        <time>2013-01-30T15:01:23Z</time>
      </trkpt>
      <trkpt lat="44.55407" lon="0.90612">
        <ele>171.25</ele>
        <time>2013-01-30T15:01:48Z</time>
      </trkpt>
      <trkpt lat="44.55408" lon="0.90612">
        <ele>171.25</ele>
        <time>2013-01-30T15:02:17Z</time>
      </trkpt>
      <trkpt lat="44.55407" lon="0.90614">
        <ele>171.25</ele>
        <time>2013-01-30T15:02:46Z</time>
      </trkpt>
      <trkpt lat="44.55408" lon="0.90612">
        <ele>168.85</ele>
        <time>2013-01-30T15:03:16Z</time>
      </trkpt>
      <trkpt lat="44.55407" lon="0.90613">
        <ele>168.85</ele>
        <time>2013-01-30T15:03:32Z</time>
      </trkpt>
      <trkpt lat="44.55383" lon="0.90615">
        <ele>171.25</ele>
        <time>2013-01-30T15:03:43Z</time>
      </trkpt>
      <trkpt lat="44.55347" lon="0.90619">
        <ele>173.66</ele>
        <time>2013-01-30T15:03:55Z</time>
      </trkpt>
      <trkpt lat="44.5534" lon="0.90622">
        <ele>174.14</ele>
        <time>2013-01-30T15:03:57Z</time>
      </trkpt>
      <trkpt lat="44.55336" lon="0.90654">
        <ele>174.62</ele>
        <time>2013-01-30T15:04:03Z</time>
      </trkpt>
      <trkpt lat="44.5535" lon="0.90746">
        <ele>174.14</ele>
        <time>2013-01-30T15:04:17Z</time>
      </trkpt>
      <trkpt lat="44.55351" lon="0.90764">
        <ele>174.14</ele>
        <time>2013-01-30T15:04:20Z</time>
      </trkpt>
      <trkpt lat="44.55333" lon="0.90803">
        <ele>173.17</ele>
        <time>2013-01-30T15:04:28Z</time>
      </trkpt>
      <trkpt lat="44.55324" lon="0.90809">
        <ele>172.69</ele>
        <time>2013-01-30T15:04:30Z</time>
      </trkpt>
      <trkpt lat="44.55314" lon="0.90815">
        <ele>172.21</ele>
        <time>2013-01-30T15:04:32Z</time>
      </trkpt>
      <trkpt lat="44.55306" lon="0.90824">
        <ele>171.25</ele>
        <time>2013-01-30T15:04:34Z</time>
      </trkpt>
      <trkpt lat="44.5529" lon="0.90851">
        <ele>169.81</ele>
        <time>2013-01-30T15:04:38Z</time>
      </trkpt>
      <trkpt lat="44.55275" lon="0.90899">
        <ele>166.93</ele>
        <time>2013-01-30T15:04:44Z</time>
      </trkpt>
      <trkpt lat="44.5527" lon="0.90944">
        <ele>163.08</ele>
        <time>2013-01-30T15:04:50Z</time>
      </trkpt>
      <trkpt lat="44.55278" lon="0.91004">
        <ele>161.64</ele>
        <time>2013-01-30T15:05:01Z</time>
      </trkpt>
      <trkpt lat="44.55295" lon="0.9104">
        <ele>162.12</ele>
        <time>2013-01-30T15:05:12Z</time>
      </trkpt>
      <trkpt lat="44.553" lon="0.91076">
        <ele>163.56</ele>
        <time>2013-01-30T15:05:23Z</time>
      </trkpt>
      <trkpt lat="44.55306" lon="0.9114">
        <ele>164.04</ele>
        <time>2013-01-30T15:05:36Z</time>
      </trkpt>
      <trkpt lat="44.55307" lon="0.91186">
        <ele>167.41</ele>
        <time>2013-01-30T15:05:45Z</time>
      </trkpt>
      <trkpt lat="44.55304" lon="0.91222">
        <ele>167.89</ele>
        <time>2013-01-30T15:05:52Z</time>
      </trkpt>
      <trkpt lat="44.553" lon="0.91235">
        <ele>167.41</ele>
        <time>2013-01-30T15:05:54Z</time>
      </trkpt>
      <trkpt lat="44.55273" lon="0.91306">
        <ele>163.08</ele>
        <time>2013-01-30T15:06:04Z</time>
      </trkpt>
      <trkpt lat="44.55262" lon="0.91321">
        <ele>162.12</ele>
        <time>2013-01-30T15:06:07Z</time>
      </trkpt>
      <trkpt lat="44.55249" lon="0.91346">
        <ele>162.6</ele>
        <time>2013-01-30T15:06:11Z</time>
      </trkpt>
      <trkpt lat="44.55246" lon="0.91371">
        <ele>163.08</ele>
        <time>2013-01-30T15:06:14Z</time>
      </trkpt>
      <trkpt lat="44.55235" lon="0.91476">
        <ele>160.2</ele>
        <time>2013-01-30T15:06:23Z</time>
      </trkpt>
      <trkpt lat="44.55228" lon="0.91547">
        <ele>163.08</ele>
        <time>2013-01-30T15:06:31Z</time>
      </trkpt>
      <trkpt lat="44.55227" lon="0.91558">
        <ele>165</ele>
        <time>2013-01-30T15:06:34Z</time>
      </trkpt>
      <trkpt lat="44.55219" lon="0.91585">
        <ele>167.89</ele>
        <time>2013-01-30T15:06:44Z</time>
      </trkpt>
      <trkpt lat="44.55222" lon="0.91591">
        <ele>167.89</ele>
        <time>2013-01-30T15:06:46Z</time>
      </trkpt>
      <trkpt lat="44.55225" lon="0.91594">
        <ele>167.89</ele>
        <time>2013-01-30T15:06:48Z</time>
      </trkpt>
      <trkpt lat="44.55232" lon="0.91624">
        <ele>167.89</ele>
        <time>2013-01-30T15:06:56Z</time>
      </trkpt>
      <trkpt lat="44.55251" lon="0.91669">
        <ele>163.08</ele>
        <time>2013-01-30T15:07:04Z</time>
      </trkpt>
      <trkpt lat="44.5528" lon="0.91746">
        <ele>147.22</ele>
        <time>2013-01-30T15:07:16Z</time>
      </trkpt>
      <trkpt lat="44.55282" lon="0.91751">
        <ele>143.85</ele>
        <time>2013-01-30T15:07:26Z</time>
      </trkpt>
      <trkpt lat="44.55279" lon="0.91746">
        <ele>147.22</ele>
        <time>2013-01-30T15:07:53Z</time>
      </trkpt>
      <trkpt lat="44.55279" lon="0.91753">
        <ele>148.18</ele>
        <time>2013-01-30T15:08:11Z</time>
      </trkpt>
      <trkpt lat="44.55265" lon="0.91777">
        <ele>148.66</ele>
        <time>2013-01-30T15:08:22Z</time>
      </trkpt>
      <trkpt lat="44.55253" lon="0.91789">
        <ele>147.7</ele>
        <time>2013-01-30T15:08:25Z</time>
      </trkpt>
      <trkpt lat="44.55243" lon="0.918">
        <ele>146.74</ele>
        <time>2013-01-30T15:08:27Z</time>
      </trkpt>
      <trkpt lat="44.55242" lon="0.91844">
        <ele>144.34</ele>
        <time>2013-01-30T15:08:33Z</time>
      </trkpt>
      <trkpt lat="44.55291" lon="0.91954">
        <ele>132.32</ele>
        <time>2013-01-30T15:08:43Z</time>
      </trkpt>
      <trkpt lat="44.55332" lon="0.92047">
        <ele>122.22</ele>
        <time>2013-01-30T15:08:51Z</time>
      </trkpt>
      <trkpt lat="44.55339" lon="0.9206">
        <ele>119.82</ele>
        <time>2013-01-30T15:08:53Z</time>
      </trkpt>
      <trkpt lat="44.55344" lon="0.92098">
        <ele>116.46</ele>
        <time>2013-01-30T15:09:02Z</time>
      </trkpt>
      <trkpt lat="44.55342" lon="0.92102">
        <ele>116.46</ele>
        <time>2013-01-30T15:09:03Z</time>
      </trkpt>
      <trkpt lat="44.55323" lon="0.92142">
        <ele>119.34</ele>
        <time>2013-01-30T15:09:13Z</time>
      </trkpt>
      <trkpt lat="44.55299" lon="0.92167">
        <ele>118.86</ele>
        <time>2013-01-30T15:09:19Z</time>
      </trkpt>
      <trkpt lat="44.55283" lon="0.92186">
        <ele>118.86</ele>
        <time>2013-01-30T15:09:23Z</time>
      </trkpt>
      <trkpt lat="44.55229" lon="0.92224">
        <ele>118.86</ele>
        <time>2013-01-30T15:09:34Z</time>
      </trkpt>
      <trkpt lat="44.55218" lon="0.92233">
        <ele>118.38</ele>
        <time>2013-01-30T15:09:36Z</time>
      </trkpt>
      <trkpt lat="44.55201" lon="0.9225">
        <ele>117.42</ele>
        <time>2013-01-30T15:09:39Z</time>
      </trkpt>
      <trkpt lat="44.55182" lon="0.92276">
        <ele>116.46</ele>
        <time>2013-01-30T15:09:43Z</time>
      </trkpt>
      <trkpt lat="44.55175" lon="0.92299">
        <ele>115.98</ele>
        <time>2013-01-30T15:09:46Z</time>
      </trkpt>
      <trkpt lat="44.5515" lon="0.92356">
        <ele>117.9</ele>
        <time>2013-01-30T15:09:55Z</time>
      </trkpt>
      <trkpt lat="44.55145" lon="0.92395">
        <ele>119.34</ele>
        <time>2013-01-30T15:10:02Z</time>
      </trkpt>
      <trkpt lat="44.55141" lon="0.9243">
        <ele>118.38</ele>
        <time>2013-01-30T15:10:08Z</time>
      </trkpt>
      <trkpt lat="44.55139" lon="0.92457">
        <ele>118.86</ele>
        <time>2013-01-30T15:10:12Z</time>
      </trkpt>
      <trkpt lat="44.55131" lon="0.9255">
        <ele>123.67</ele>
        <time>2013-01-30T15:10:28Z</time>
      </trkpt>
      <trkpt lat="44.55128" lon="0.92589">
        <ele>126.55</ele>
        <time>2013-01-30T15:10:40Z</time>
      </trkpt>
      <trkpt lat="44.55128" lon="0.92595">
        <ele>128.47</ele>
        <time>2013-01-30T15:10:56Z</time>
      </trkpt>
      <trkpt lat="44.55126" lon="0.92595">
        <ele>130.88</ele>
        <time>2013-01-30T15:11:17Z</time>
      </trkpt>
      <trkpt lat="44.55128" lon="0.92595">
        <ele>131.36</ele>
        <time>2013-01-30T15:11:19Z</time>
      </trkpt>
      <trkpt lat="44.55154" lon="0.92598">
        <ele>132.8</ele>
        <time>2013-01-30T15:11:30Z</time>
      </trkpt>
      <trkpt lat="44.55183" lon="0.92603">
        <ele>134.72</ele>
        <time>2013-01-30T15:11:41Z</time>
      </trkpt>
      <trkpt lat="44.55205" lon="0.92616">
        <ele>135.68</ele>
        <time>2013-01-30T15:11:52Z</time>
      </trkpt>
      <trkpt lat="44.55225" lon="0.92636">
        <ele>134.72</ele>
        <time>2013-01-30T15:12:00Z</time>
      </trkpt>
      <trkpt lat="44.55263" lon="0.9266">
        <ele>131.84</ele>
        <time>2013-01-30T15:12:13Z</time>
      </trkpt>
      <trkpt lat="44.5529" lon="0.92672">
        <ele>128.47</ele>
        <time>2013-01-30T15:12:23Z</time>
      </trkpt>
      <trkpt lat="44.55296" lon="0.92679">
        <ele>127.99</ele>
        <time>2013-01-30T15:12:27Z</time>
      </trkpt>
      <trkpt lat="44.55299" lon="0.92686">
        <ele>130.4</ele>
        <time>2013-01-30T15:12:42Z</time>
      </trkpt>
      <trkpt lat="44.553" lon="0.9271">
        <ele>130.4</ele>
        <time>2013-01-30T15:12:52Z</time>
      </trkpt>
      <trkpt lat="44.55315" lon="0.92724">
        <ele>130.88</ele>
        <time>2013-01-30T15:12:59Z</time>
      </trkpt>
      <trkpt lat="44.55349" lon="0.9273">
        <ele>129.43</ele>
        <time>2013-01-30T15:13:12Z</time>
      </trkpt>
      <trkpt lat="44.55398" lon="0.92724">
        <ele>130.4</ele>
        <time>2013-01-30T15:13:27Z</time>
      </trkpt>
      <trkpt lat="44.5544" lon="0.92713">
        <ele>138.57</ele>
        <time>2013-01-30T15:13:40Z</time>
      </trkpt>
      <trkpt lat="44.55477" lon="0.927">
        <ele>143.37</ele>
        <time>2013-01-30T15:13:53Z</time>
      </trkpt>
      <trkpt lat="44.55484" lon="0.92697">
        <ele>144.82</ele>
        <time>2013-01-30T15:13:58Z</time>
      </trkpt>
      <trkpt lat="44.55503" lon="0.92717">
        <ele>144.82</ele>
        <time>2013-01-30T15:14:13Z</time>
      </trkpt>
      <trkpt lat="44.55508" lon="0.92717">
        <ele>147.7</ele>
        <time>2013-01-30T15:14:29Z</time>
      </trkpt>
      <trkpt lat="44.55512" lon="0.92722">
        <ele>148.66</ele>
        <time>2013-01-30T15:14:44Z</time>
      </trkpt>
      <trkpt lat="44.55506" lon="0.92751">
        <ele>152.03</ele>
        <time>2013-01-30T15:14:58Z</time>
      </trkpt>
      <trkpt lat="44.555" lon="0.92762">
        <ele>154.43</ele>
        <time>2013-01-30T15:15:09Z</time>
      </trkpt>
      <trkpt lat="44.55487" lon="0.92768">
        <ele>157.31</ele>
        <time>2013-01-30T15:15:23Z</time>
      </trkpt>
      <trkpt lat="44.55475" lon="0.92776">
        <ele>163.08</ele>
        <time>2013-01-30T15:15:39Z</time>
      </trkpt>
      <trkpt lat="44.55471" lon="0.92784">
        <ele>161.64</ele>
        <time>2013-01-30T15:15:53Z</time>
      </trkpt>
      <trkpt lat="44.5546" lon="0.92814">
        <ele>164.04</ele>
        <time>2013-01-30T15:16:09Z</time>
      </trkpt>
      <trkpt lat="44.55452" lon="0.92839">
        <ele>169.81</ele>
        <time>2013-01-30T15:16:22Z</time>
      </trkpt>
      <trkpt lat="44.55449" lon="0.92854">
        <ele>171.25</ele>
        <time>2013-01-30T15:16:29Z</time>
      </trkpt>
      <trkpt lat="44.55461" lon="0.92869">
        <ele>174.14</ele>
        <time>2013-01-30T15:16:43Z</time>
      </trkpt>
      <trkpt lat="44.55481" lon="0.92877">
        <ele>172.69</ele>
        <time>2013-01-30T15:16:59Z</time>
      </trkpt>
      <trkpt lat="44.55499" lon="0.92895">
        <ele>174.14</ele>
        <time>2013-01-30T15:17:13Z</time>
      </trkpt>
      <trkpt lat="44.5552" lon="0.92914">
        <ele>178.46</ele>
        <time>2013-01-30T15:17:29Z</time>
      </trkpt>
      <trkpt lat="44.55533" lon="0.92924">
        <ele>178.94</ele>
        <time>2013-01-30T15:17:40Z</time>
      </trkpt>
      <trkpt lat="44.55551" lon="0.92935">
        <ele>180.38</ele>
        <time>2013-01-30T15:17:54Z</time>
      </trkpt>
      <trkpt lat="44.55555" lon="0.92939">
        <ele>181.35</ele>
        <time>2013-01-30T15:17:58Z</time>
      </trkpt>
      <trkpt lat="44.55556" lon="0.92962">
        <ele>184.23</ele>
        <time>2013-01-30T15:18:11Z</time>
      </trkpt>
      <trkpt lat="44.55556" lon="0.92967">
        <ele>185.19</ele>
        <time>2013-01-30T15:18:14Z</time>
      </trkpt>
      <trkpt lat="44.55554" lon="0.92976">
        <ele>186.15</ele>
        <time>2013-01-30T15:18:19Z</time>
      </trkpt>
      <trkpt lat="44.55543" lon="0.93003">
        <ele>187.11</ele>
        <time>2013-01-30T15:18:31Z</time>
      </trkpt>
      <trkpt lat="44.55542" lon="0.93013">
        <ele>188.56</ele>
        <time>2013-01-30T15:18:35Z</time>
      </trkpt>
      <trkpt lat="44.55542" lon="0.93018">
        <ele>189.52</ele>
        <time>2013-01-30T15:18:38Z</time>
      </trkpt>
      <trkpt lat="44.55549" lon="0.93011">
        <ele>190.96</ele>
        <time>2013-01-30T15:18:51Z</time>
      </trkpt>
      <trkpt lat="44.55557" lon="0.93006">
        <ele>192.4</ele>
        <time>2013-01-30T15:19:02Z</time>
      </trkpt>
      <trkpt lat="44.55564" lon="0.93001">
        <ele>193.36</ele>
        <time>2013-01-30T15:19:07Z</time>
      </trkpt>
      <trkpt lat="44.55589" lon="0.92995">
        <ele>199.13</ele>
        <time>2013-01-30T15:19:23Z</time>
      </trkpt>
      <trkpt lat="44.55613" lon="0.9301">
        <ele>199.13</ele>
        <time>2013-01-30T15:19:37Z</time>
      </trkpt>
      <trkpt lat="44.55622" lon="0.93016">
        <ele>199.61</ele>
        <time>2013-01-30T15:19:43Z</time>
      </trkpt>
      <trkpt lat="44.55628" lon="0.93013">
        <ele>199.61</ele>
        <time>2013-01-30T15:19:47Z</time>
      </trkpt>
      <trkpt lat="44.55658" lon="0.92997">
        <ele>199.61</ele>
        <time>2013-01-30T15:20:02Z</time>
      </trkpt>
      <trkpt lat="44.55689" lon="0.92965">
        <ele>197.21</ele>
        <time>2013-01-30T15:20:18Z</time>
      </trkpt>
      <trkpt lat="44.55693" lon="0.92959">
        <ele>196.73</ele>
        <time>2013-01-30T15:20:21Z</time>
      </trkpt>
      <trkpt lat="44.55692" lon="0.92951">
        <ele>194.32</ele>
        <time>2013-01-30T15:20:33Z</time>
      </trkpt>
      <trkpt lat="44.55692" lon="0.92953">
        <ele>195.28</ele>
        <time>2013-01-30T15:20:50Z</time>
      </trkpt>
      <trkpt lat="44.55692" lon="0.92954">
        <ele>195.28</ele>
        <time>2013-01-30T15:20:53Z</time>
      </trkpt>
      <trkpt lat="44.55683" lon="0.92981">
        <ele>196.25</ele>
        <time>2013-01-30T15:21:05Z</time>
      </trkpt>
      <trkpt lat="44.55666" lon="0.93022">
        <ele>198.17</ele>
        <time>2013-01-30T15:21:20Z</time>
      </trkpt>
      <trkpt lat="44.55663" lon="0.93036">
        <ele>199.13</ele>
        <time>2013-01-30T15:21:26Z</time>
      </trkpt>
      <trkpt lat="44.55676" lon="0.93052">
        <ele>202.01</ele>
        <time>2013-01-30T15:21:38Z</time>
      </trkpt>
      <trkpt lat="44.55707" lon="0.9307">
        <ele>206.34</ele>
        <time>2013-01-30T15:21:55Z</time>
      </trkpt>
      <trkpt lat="44.55724" lon="0.93089">
        <ele>208.74</ele>
        <time>2013-01-30T15:22:10Z</time>
      </trkpt>
      <trkpt lat="44.55725" lon="0.93094">
        <ele>209.22</ele>
        <time>2013-01-30T15:22:13Z</time>
      </trkpt>
      <trkpt lat="44.55721" lon="0.93128">
        <ele>209.22</ele>
        <time>2013-01-30T15:22:31Z</time>
      </trkpt>
      <trkpt lat="44.5574" lon="0.93146">
        <ele>206.82</ele>
        <time>2013-01-30T15:22:40Z</time>
      </trkpt>
      <trkpt lat="44.55762" lon="0.93131">
        <ele>203.46</ele>
        <time>2013-01-30T15:22:50Z</time>
      </trkpt>
      <trkpt lat="44.55781" lon="0.9309">
        <ele>207.3</ele>
        <time>2013-01-30T15:23:03Z</time>
      </trkpt>
      <trkpt lat="44.55788" lon="0.93051">
        <ele>209.22</ele>
        <time>2013-01-30T15:23:14Z</time>
      </trkpt>
      <trkpt lat="44.55786" lon="0.93043">
        <ele>209.22</ele>
        <time>2013-01-30T15:23:16Z</time>
      </trkpt>
      <trkpt lat="44.55788" lon="0.93028">
        <ele>208.26</ele>
        <time>2013-01-30T15:23:20Z</time>
      </trkpt>
      <trkpt lat="44.55804" lon="0.92953">
        <ele>206.34</ele>
        <time>2013-01-30T15:23:32Z</time>
      </trkpt>
      <trkpt lat="44.55809" lon="0.92906">
        <ele>204.9</ele>
        <time>2013-01-30T15:23:37Z</time>
      </trkpt>
      <trkpt lat="44.55814" lon="0.92813">
        <ele>200.57</ele>
        <time>2013-01-30T15:23:48Z</time>
      </trkpt>
      <trkpt lat="44.55846" lon="0.92753">
        <ele>202.49</ele>
        <time>2013-01-30T15:23:59Z</time>
      </trkpt>
      <trkpt lat="44.55872" lon="0.92705">
        <ele>206.82</ele>
        <time>2013-01-30T15:24:11Z</time>
      </trkpt>
      <trkpt lat="44.55891" lon="0.9267">
        <ele>210.19</ele>
        <time>2013-01-30T15:24:24Z</time>
      </trkpt>
      <trkpt lat="44.55911" lon="0.92615">
        <ele>211.63</ele>
        <time>2013-01-30T15:24:39Z</time>
      </trkpt>
      <trkpt lat="44.55928" lon="0.92546">
        <ele>211.63</ele>
        <time>2013-01-30T15:24:52Z</time>
      </trkpt>
      <trkpt lat="44.55934" lon="0.92522">
        <ele>211.63</ele>
        <time>2013-01-30T15:24:56Z</time>
      </trkpt>
      <trkpt lat="44.55959" lon="0.92449">
        <ele>209.7</ele>
        <time>2013-01-30T15:25:10Z</time>
      </trkpt>
      <trkpt lat="44.55977" lon="0.92409">
        <ele>210.67</ele>
        <time>2013-01-30T15:25:18Z</time>
      </trkpt>
      <trkpt lat="44.55998" lon="0.92363">
        <ele>212.11</ele>
        <time>2013-01-30T15:25:31Z</time>
      </trkpt>
      <trkpt lat="44.55999" lon="0.92359">
        <ele>212.59</ele>
        <time>2013-01-30T15:25:33Z</time>
      </trkpt>
      <trkpt lat="44.55999" lon="0.92351">
        <ele>213.07</ele>
        <time>2013-01-30T15:25:44Z</time>
      </trkpt>
      <trkpt lat="44.55998" lon="0.92351">
        <ele>207.78</ele>
        <time>2013-01-30T15:26:10Z</time>
      </trkpt>
      <trkpt lat="44.55996" lon="0.92351">
        <ele>206.82</ele>
        <time>2013-01-30T15:26:58Z</time>
      </trkpt>
      <trkpt lat="44.55995" lon="0.92351">
        <ele>209.22</ele>
        <time>2013-01-30T15:27:44Z</time>
      </trkpt>
      <trkpt lat="44.56" lon="0.92352">
        <ele>208.74</ele>
        <time>2013-01-30T15:28:30Z</time>
      </trkpt>
      <trkpt lat="44.55993" lon="0.92353">
        <ele>208.26</ele>
        <time>2013-01-30T15:29:08Z</time>
      </trkpt>
      <trkpt lat="44.55993" lon="0.92354">
        <ele>208.74</ele>
        <time>2013-01-30T15:29:55Z</time>
      </trkpt>
      <trkpt lat="44.55996" lon="0.92353">
        <ele>208.26</ele>
        <time>2013-01-30T15:30:32Z</time>
      </trkpt>
      <trkpt lat="44.55996" lon="0.92348">
        <ele>208.26</ele>
        <time>2013-01-30T15:31:03Z</time>
      </trkpt>
      <trkpt lat="44.55992" lon="0.9235">
        <ele>212.11</ele>
        <time>2013-01-30T15:31:43Z</time>
      </trkpt>
      <trkpt lat="44.55996" lon="0.9235">
        <ele>211.63</ele>
        <time>2013-01-30T15:32:11Z</time>
      </trkpt>
      <trkpt lat="44.56" lon="0.9235">
        <ele>210.67</ele>
        <time>2013-01-30T15:32:35Z</time>
      </trkpt>
      <trkpt lat="44.56" lon="0.9235">
        <ele>210.19</ele>
        <time>2013-01-30T15:32:55Z</time>
      </trkpt>
      <trkpt lat="44.56001" lon="0.92351">
        <ele>210.19</ele>
        <time>2013-01-30T15:33:15Z</time>
      </trkpt>
      <trkpt lat="44.56001" lon="0.92351">
        <ele>209.22</ele>
        <time>2013-01-30T15:33:21Z</time>
      </trkpt>
      <trkpt lat="44.56008" lon="0.92317">
        <ele>208.26</ele>
        <time>2013-01-30T15:33:32Z</time>
      </trkpt>
      <trkpt lat="44.56009" lon="0.92305">
        <ele>208.26</ele>
        <time>2013-01-30T15:33:34Z</time>
      </trkpt>
      <trkpt lat="44.56015" lon="0.92268">
        <ele>208.26</ele>
        <time>2013-01-30T15:33:39Z</time>
      </trkpt>
      <trkpt lat="44.5603" lon="0.92217">
        <ele>207.3</ele>
        <time>2013-01-30T15:33:45Z</time>
      </trkpt>
      <trkpt lat="44.56037" lon="0.92202">
        <ele>206.82</ele>
        <time>2013-01-30T15:33:47Z</time>
      </trkpt>
      <trkpt lat="44.56058" lon="0.92119">
        <ele>206.34</ele>
        <time>2013-01-30T15:34:00Z</time>
      </trkpt>
      <trkpt lat="44.56061" lon="0.92084">
        <ele>208.26</ele>
        <time>2013-01-30T15:34:10Z</time>
      </trkpt>
      <trkpt lat="44.56066" lon="0.9205">
        <ele>212.11</ele>
        <time>2013-01-30T15:34:23Z</time>
      </trkpt>
      <trkpt lat="44.56088" lon="0.92026">
        <ele>213.55</ele>
        <time>2013-01-30T15:34:36Z</time>
      </trkpt>
      <trkpt lat="44.56113" lon="0.92013">
        <ele>216.43</ele>
        <time>2013-01-30T15:34:50Z</time>
      </trkpt>
      <trkpt lat="44.56136" lon="0.92003">
        <ele>218.36</ele>
        <time>2013-01-30T15:35:02Z</time>
      </trkpt>
      <trkpt lat="44.56173" lon="0.91995">
        <ele>217.88</ele>
        <time>2013-01-30T15:35:17Z</time>
      </trkpt>
      <trkpt lat="44.5619" lon="0.91993">
        <ele>218.36</ele>
        <time>2013-01-30T15:35:22Z</time>
      </trkpt>
      <trkpt lat="44.56213" lon="0.9199">
        <ele>219.32</ele>
        <time>2013-01-30T15:35:27Z</time>
      </trkpt>
      <trkpt lat="44.5625" lon="0.91984">
        <ele>219.32</ele>
        <time>2013-01-30T15:35:34Z</time>
      </trkpt>
      <trkpt lat="44.56296" lon="0.9197">
        <ele>219.32</ele>
        <time>2013-01-30T15:35:44Z</time>
      </trkpt>
      <trkpt lat="44.56384" lon="0.91918">
        <ele>216.43</ele>
        <time>2013-01-30T15:35:57Z</time>
      </trkpt>
      <trkpt lat="44.56417" lon="0.91897">
        <ele>216.43</ele>
        <time>2013-01-30T15:36:02Z</time>
      </trkpt>
      <trkpt lat="44.56428" lon="0.91886">
        <ele>216.91</ele>
        <time>2013-01-30T15:36:04Z</time>
      </trkpt>
      <trkpt lat="44.56495" lon="0.91823">
        <ele>217.88</ele>
        <time>2013-01-30T15:36:18Z</time>
      </trkpt>
      <trkpt lat="44.56524" lon="0.9179">
        <ele>219.8</ele>
        <time>2013-01-30T15:36:26Z</time>
      </trkpt>
      <trkpt lat="44.56541" lon="0.91761">
        <ele>221.72</ele>
        <time>2013-01-30T15:36:35Z</time>
      </trkpt>
      <trkpt lat="44.56556" lon="0.91727">
        <ele>223.16</ele>
        <time>2013-01-30T15:36:48Z</time>
      </trkpt>
      <trkpt lat="44.56568" lon="0.91699">
        <ele>224.12</ele>
        <time>2013-01-30T15:36:54Z</time>
      </trkpt>
      <trkpt lat="44.56581" lon="0.91683">
        <ele>224.12</ele>
        <time>2013-01-30T15:36:58Z</time>
      </trkpt>
      <trkpt lat="44.56599" lon="0.91674">
        <ele>224.61</ele>
        <time>2013-01-30T15:37:02Z</time>
      </trkpt>
      <trkpt lat="44.56657" lon="0.91637">
        <ele>227.49</ele>
        <time>2013-01-30T15:37:15Z</time>
      </trkpt>
      <trkpt lat="44.56721" lon="0.91583">
        <ele>227.97</ele>
        <time>2013-01-30T15:37:29Z</time>
      </trkpt>
      <trkpt lat="44.56779" lon="0.91508">
        <ele>228.45</ele>
        <time>2013-01-30T15:37:44Z</time>
      </trkpt>
      <trkpt lat="44.56824" lon="0.91404">
        <ele>226.53</ele>
        <time>2013-01-30T15:38:01Z</time>
      </trkpt>
      <trkpt lat="44.56853" lon="0.91323">
        <ele>223.16</ele>
        <time>2013-01-30T15:38:15Z</time>
      </trkpt>
      <trkpt lat="44.56855" lon="0.91318">
        <ele>222.68</ele>
        <time>2013-01-30T15:38:19Z</time>
      </trkpt>
      <trkpt lat="44.56881" lon="0.91331">
        <ele>221.72</ele>
        <time>2013-01-30T15:38:32Z</time>
      </trkpt>
      <trkpt lat="44.56903" lon="0.91347">
        <ele>223.16</ele>
        <time>2013-01-30T15:38:43Z</time>
      </trkpt>
      <trkpt lat="44.56922" lon="0.91364">
        <ele>225.09</ele>
        <time>2013-01-30T15:38:53Z</time>
      </trkpt>
      <trkpt lat="44.56928" lon="0.9137">
        <ele>226.05</ele>
        <time>2013-01-30T15:38:56Z</time>
      </trkpt>
      <trkpt lat="44.56942" lon="0.91382">
        <ele>227.97</ele>
        <time>2013-01-30T15:39:02Z</time>
      </trkpt>
      <trkpt lat="44.56975" lon="0.91408">
        <ele>233.26</ele>
        <time>2013-01-30T15:39:16Z</time>
      </trkpt>
      <trkpt lat="44.56998" lon="0.9142">
        <ele>237.1</ele>
        <time>2013-01-30T15:39:28Z</time>
      </trkpt>
      <trkpt lat="44.57002" lon="0.91421">
        <ele>237.1</ele>
        <time>2013-01-30T15:39:30Z</time>
      </trkpt>
      <trkpt lat="44.57024" lon="0.91428">
        <ele>235.18</ele>
        <time>2013-01-30T15:39:41Z</time>
      </trkpt>
      <trkpt lat="44.57034" lon="0.91425">
        <ele>235.18</ele>
        <time>2013-01-30T15:39:54Z</time>
      </trkpt>
      <trkpt lat="44.57035" lon="0.91423">
        <ele>235.18</ele>
        <time>2013-01-30T15:39:57Z</time>
      </trkpt>
      <trkpt lat="44.57036" lon="0.91421">
        <ele>235.18</ele>
        <time>2013-01-30T15:39:59Z</time>
      </trkpt>
      <trkpt lat="44.57047" lon="0.91402">
        <ele>233.26</ele>
        <time>2013-01-30T15:40:10Z</time>
      </trkpt>
      <trkpt lat="44.57066" lon="0.91394">
        <ele>232.78</ele>
        <time>2013-01-30T15:40:20Z</time>
      </trkpt>
      <trkpt lat="44.57083" lon="0.91389">
        <ele>234.7</ele>
        <time>2013-01-30T15:40:31Z</time>
      </trkpt>
      <trkpt lat="44.57097" lon="0.91391">
        <ele>235.18</ele>
        <time>2013-01-30T15:40:44Z</time>
      </trkpt>
      <trkpt lat="44.57107" lon="0.91389">
        <ele>237.58</ele>
        <time>2013-01-30T15:41:00Z</time>
      </trkpt>
      <trkpt lat="44.57113" lon="0.91386">
        <ele>236.62</ele>
        <time>2013-01-30T15:41:13Z</time>
      </trkpt>
      <trkpt lat="44.57114" lon="0.91386">
        <ele>236.62</ele>
        <time>2013-01-30T15:41:15Z</time>
      </trkpt>
      <trkpt lat="44.5714" lon="0.91372">
        <ele>236.62</ele>
        <time>2013-01-30T15:41:28Z</time>
      </trkpt>
      <trkpt lat="44.57173" lon="0.91352">
        <ele>238.06</ele>
        <time>2013-01-30T15:41:44Z</time>
      </trkpt>
      <trkpt lat="44.57203" lon="0.91333">
        <ele>237.58</ele>
        <time>2013-01-30T15:41:59Z</time>
      </trkpt>
      <trkpt lat="44.57219" lon="0.91314">
        <ele>237.1</ele>
        <time>2013-01-30T15:42:13Z</time>
      </trkpt>
      <trkpt lat="44.57243" lon="0.91305">
        <ele>236.14</ele>
        <time>2013-01-30T15:42:26Z</time>
      </trkpt>
      <trkpt lat="44.57266" lon="0.91307">
        <ele>234.22</ele>
        <time>2013-01-30T15:42:40Z</time>
      </trkpt>
      <trkpt lat="44.5727" lon="0.91307">
        <ele>234.22</ele>
        <time>2013-01-30T15:42:51Z</time>
      </trkpt>
      <trkpt lat="44.57272" lon="0.91308">
        <ele>234.7</ele>
        <time>2013-01-30T15:43:00Z</time>
      </trkpt>
      <trkpt lat="44.57273" lon="0.91312">
        <ele>234.7</ele>
        <time>2013-01-30T15:43:03Z</time>
      </trkpt>
      <trkpt lat="44.57289" lon="0.91364">
        <ele>234.7</ele>
        <time>2013-01-30T15:43:15Z</time>
      </trkpt>
      <trkpt lat="44.57298" lon="0.9139">
        <ele>234.22</ele>
        <time>2013-01-30T15:43:20Z</time>
      </trkpt>
      <trkpt lat="44.57329" lon="0.91498">
        <ele>237.58</ele>
        <time>2013-01-30T15:43:39Z</time>
      </trkpt>
      <trkpt lat="44.57354" lon="0.91589">
        <ele>240.47</ele>
        <time>2013-01-30T15:43:57Z</time>
      </trkpt>
      <trkpt lat="44.57385" lon="0.91645">
        <ele>239.02</ele>
        <time>2013-01-30T15:44:07Z</time>
      </trkpt>
      <trkpt lat="44.57466" lon="0.91736">
        <ele>238.06</ele>
        <time>2013-01-30T15:44:24Z</time>
      </trkpt>
      <trkpt lat="44.57505" lon="0.91775">
        <ele>239.02</ele>
        <time>2013-01-30T15:44:32Z</time>
      </trkpt>
      <trkpt lat="44.57556" lon="0.91801">
        <ele>238.54</ele>
        <time>2013-01-30T15:44:41Z</time>
      </trkpt>
      <trkpt lat="44.57572" lon="0.91812">
        <ele>238.06</ele>
        <time>2013-01-30T15:44:44Z</time>
      </trkpt>
      <trkpt lat="44.57594" lon="0.91841">
        <ele>238.06</ele>
        <time>2013-01-30T15:44:49Z</time>
      </trkpt>
      <trkpt lat="44.57636" lon="0.91979">
        <ele>238.06</ele>
        <time>2013-01-30T15:45:05Z</time>
      </trkpt>
      <trkpt lat="44.57651" lon="0.92007">
        <ele>239.02</ele>
        <time>2013-01-30T15:45:09Z</time>
      </trkpt>
      <trkpt lat="44.57737" lon="0.92077">
        <ele>239.99</ele>
        <time>2013-01-30T15:45:24Z</time>
      </trkpt>
      <trkpt lat="44.57831" lon="0.92098">
        <ele>238.54</ele>
        <time>2013-01-30T15:45:36Z</time>
      </trkpt>
      <trkpt lat="44.57881" lon="0.92129">
        <ele>236.14</ele>
        <time>2013-01-30T15:45:42Z</time>
      </trkpt>
      <trkpt lat="44.57965" lon="0.92232">
        <ele>231.81</ele>
        <time>2013-01-30T15:45:54Z</time>
      </trkpt>
      <trkpt lat="44.58008" lon="0.92253">
        <ele>230.85</ele>
        <time>2013-01-30T15:45:59Z</time>
      </trkpt>
      <trkpt lat="44.58092" lon="0.92268">
        <ele>230.37</ele>
        <time>2013-01-30T15:46:12Z</time>
      </trkpt>
      <trkpt lat="44.58102" lon="0.92271">
        <ele>230.37</ele>
        <time>2013-01-30T15:46:14Z</time>
      </trkpt>
      <trkpt lat="44.58115" lon="0.9228">
        <ele>230.85</ele>
        <time>2013-01-30T15:46:17Z</time>
      </trkpt>
      <trkpt lat="44.5813" lon="0.92299">
        <ele>230.85</ele>
        <time>2013-01-30T15:46:21Z</time>
      </trkpt>
      <trkpt lat="44.58171" lon="0.92396">
        <ele>229.41</ele>
        <time>2013-01-30T15:46:38Z</time>
      </trkpt>
      <trkpt lat="44.58209" lon="0.92484">
        <ele>229.41</ele>
        <time>2013-01-30T15:46:54Z</time>
      </trkpt>
      <trkpt lat="44.58215" lon="0.92493">
        <ele>230.37</ele>
        <time>2013-01-30T15:46:56Z</time>
      </trkpt>
      <trkpt lat="44.58239" lon="0.92503">
        <ele>230.85</ele>
        <time>2013-01-30T15:47:02Z</time>
      </trkpt>
      <trkpt lat="44.58306" lon="0.92476">
        <ele>229.41</ele>
        <time>2013-01-30T15:47:16Z</time>
      </trkpt>
      <trkpt lat="44.58328" lon="0.92473">
        <ele>229.41</ele>
        <time>2013-01-30T15:47:20Z</time>
      </trkpt>
      <trkpt lat="44.58435" lon="0.92481">
        <ele>228.93</ele>
        <time>2013-01-30T15:47:40Z</time>
      </trkpt>
      <trkpt lat="44.5849" lon="0.92486">
        <ele>228.45</ele>
        <time>2013-01-30T15:47:51Z</time>
      </trkpt>
      <trkpt lat="44.58588" lon="0.92501">
        <ele>230.85</ele>
        <time>2013-01-30T15:48:09Z</time>
      </trkpt>
      <trkpt lat="44.58647" lon="0.92528">
        <ele>233.74</ele>
        <time>2013-01-30T15:48:21Z</time>
      </trkpt>
      <trkpt lat="44.58664" lon="0.92508">
        <ele>234.22</ele>
        <time>2013-01-30T15:48:27Z</time>
      </trkpt>
      <trkpt lat="44.58663" lon="0.92501">
        <ele>234.22</ele>
        <time>2013-01-30T15:48:28Z</time>
      </trkpt>
      <trkpt lat="44.58659" lon="0.9248">
        <ele>235.18</ele>
        <time>2013-01-30T15:48:32Z</time>
      </trkpt>
      <trkpt lat="44.58672" lon="0.92467">
        <ele>237.58</ele>
        <time>2013-01-30T15:48:38Z</time>
      </trkpt>
      <trkpt lat="44.58721" lon="0.92461">
        <ele>239.51</ele>
        <time>2013-01-30T15:48:52Z</time>
      </trkpt>
      <trkpt lat="44.58776" lon="0.92448">
        <ele>240.47</ele>
        <time>2013-01-30T15:49:08Z</time>
      </trkpt>
      <trkpt lat="44.58832" lon="0.92435">
        <ele>240.95</ele>
        <time>2013-01-30T15:49:22Z</time>
      </trkpt>
      <trkpt lat="44.5884" lon="0.92432">
        <ele>240.95</ele>
        <time>2013-01-30T15:49:24Z</time>
      </trkpt>
      <trkpt lat="44.58848" lon="0.92428">
        <ele>240.95</ele>
        <time>2013-01-30T15:49:26Z</time>
      </trkpt>
      <trkpt lat="44.58855" lon="0.92422">
        <ele>241.43</ele>
        <time>2013-01-30T15:49:28Z</time>
      </trkpt>
      <trkpt lat="44.58867" lon="0.92415">
        <ele>240.95</ele>
        <time>2013-01-30T15:49:31Z</time>
      </trkpt>
      <trkpt lat="44.58929" lon="0.92391">
        <ele>239.02</ele>
        <time>2013-01-30T15:49:43Z</time>
      </trkpt>
      <trkpt lat="44.58953" lon="0.92406">
        <ele>238.06</ele>
        <time>2013-01-30T15:49:48Z</time>
      </trkpt>
      <trkpt lat="44.59004" lon="0.9251">
        <ele>240.47</ele>
        <time>2013-01-30T15:50:06Z</time>
      </trkpt>
      <trkpt lat="44.59029" lon="0.9257">
        <ele>241.91</ele>
        <time>2013-01-30T15:50:20Z</time>
      </trkpt>
      <trkpt lat="44.59032" lon="0.92581">
        <ele>241.43</ele>
        <time>2013-01-30T15:50:22Z</time>
      </trkpt>
      <trkpt lat="44.5903" lon="0.92617">
        <ele>239.99</ele>
        <time>2013-01-30T15:50:27Z</time>
      </trkpt>
      <trkpt lat="44.59024" lon="0.92639">
        <ele>239.02</ele>
        <time>2013-01-30T15:50:30Z</time>
      </trkpt>
      <trkpt lat="44.58993" lon="0.92717">
        <ele>239.99</ele>
        <time>2013-01-30T15:50:43Z</time>
      </trkpt>
      <trkpt lat="44.59006" lon="0.9273">
        <ele>239.02</ele>
        <time>2013-01-30T15:50:48Z</time>
      </trkpt>
      <trkpt lat="44.59042" lon="0.92742">
        <ele>238.06</ele>
        <time>2013-01-30T15:50:56Z</time>
      </trkpt>
      <trkpt lat="44.59092" lon="0.92767">
        <ele>238.06</ele>
        <time>2013-01-30T15:51:08Z</time>
      </trkpt>
      <trkpt lat="44.59104" lon="0.92776">
        <ele>238.06</ele>
        <time>2013-01-30T15:51:11Z</time>
      </trkpt>
      <trkpt lat="44.59134" lon="0.92774">
        <ele>237.58</ele>
        <time>2013-01-30T15:51:18Z</time>
      </trkpt>
      <trkpt lat="44.59167" lon="0.92753">
        <ele>238.54</ele>
        <time>2013-01-30T15:51:27Z</time>
      </trkpt>
      <trkpt lat="44.59188" lon="0.92751">
        <ele>238.06</ele>
        <time>2013-01-30T15:51:32Z</time>
      </trkpt>
      <trkpt lat="44.592" lon="0.92738">
        <ele>237.1</ele>
        <time>2013-01-30T15:51:36Z</time>
      </trkpt>
      <trkpt lat="44.59232" lon="0.92638">
        <ele>235.18</ele>
        <time>2013-01-30T15:51:49Z</time>
      </trkpt>
      <trkpt lat="44.59282" lon="0.92535">
        <ele>236.14</ele>
        <time>2013-01-30T15:52:04Z</time>
      </trkpt>
      <trkpt lat="44.59314" lon="0.92449">
        <ele>234.7</ele>
        <time>2013-01-30T15:52:16Z</time>
      </trkpt>
      <trkpt lat="44.59313" lon="0.92407">
        <ele>233.74</ele>
        <time>2013-01-30T15:52:21Z</time>
      </trkpt>
      <trkpt lat="44.59283" lon="0.92254">
        <ele>227.97</ele>
        <time>2013-01-30T15:52:36Z</time>
      </trkpt>
      <trkpt lat="44.59252" lon="0.92093">
        <ele>226.53</ele>
        <time>2013-01-30T15:52:51Z</time>
      </trkpt>
      <trkpt lat="44.59249" lon="0.92079">
        <ele>227.97</ele>
        <time>2013-01-30T15:52:53Z</time>
      </trkpt>
      <trkpt lat="44.59246" lon="0.92053">
        <ele>228.93</ele>
        <time>2013-01-30T15:52:57Z</time>
      </trkpt>
      <trkpt lat="44.59241" lon="0.91995">
        <ele>230.37</ele>
        <time>2013-01-30T15:53:09Z</time>
      </trkpt>
      <trkpt lat="44.59236" lon="0.91902">
        <ele>226.05</ele>
        <time>2013-01-30T15:53:23Z</time>
      </trkpt>
      <trkpt lat="44.59238" lon="0.91887">
        <ele>225.09</ele>
        <time>2013-01-30T15:53:26Z</time>
      </trkpt>
      <trkpt lat="44.59258" lon="0.91851">
        <ele>223.16</ele>
        <time>2013-01-30T15:53:33Z</time>
      </trkpt>
      <trkpt lat="44.59266" lon="0.91834">
        <ele>222.68</ele>
        <time>2013-01-30T15:53:36Z</time>
      </trkpt>
      <trkpt lat="44.59276" lon="0.9179">
        <ele>220.76</ele>
        <time>2013-01-30T15:53:45Z</time>
      </trkpt>
      <trkpt lat="44.59298" lon="0.91775">
        <ele>219.8</ele>
        <time>2013-01-30T15:53:54Z</time>
      </trkpt>
      <trkpt lat="44.5932" lon="0.91762">
        <ele>218.84</ele>
        <time>2013-01-30T15:54:01Z</time>
      </trkpt>
      <trkpt lat="44.59339" lon="0.91753">
        <ele>217.4</ele>
        <time>2013-01-30T15:54:05Z</time>
      </trkpt>
      <trkpt lat="44.59364" lon="0.91742">
        <ele>215.47</ele>
        <time>2013-01-30T15:54:10Z</time>
      </trkpt>
      <trkpt lat="44.59403" lon="0.91734">
        <ele>212.11</ele>
        <time>2013-01-30T15:54:20Z</time>
      </trkpt>
      <trkpt lat="44.59418" lon="0.91729">
        <ele>210.19</ele>
        <time>2013-01-30T15:54:25Z</time>
      </trkpt>
      <trkpt lat="44.59434" lon="0.91722">
        <ele>208.26</ele>
        <time>2013-01-30T15:54:28Z</time>
      </trkpt>
      <trkpt lat="44.59451" lon="0.91717">
        <ele>206.82</ele>
        <time>2013-01-30T15:54:32Z</time>
      </trkpt>
      <trkpt lat="44.59476" lon="0.91693">
        <ele>206.34</ele>
        <time>2013-01-30T15:54:42Z</time>
      </trkpt>
      <trkpt lat="44.5948" lon="0.91687">
        <ele>205.86</ele>
        <time>2013-01-30T15:54:44Z</time>
      </trkpt>
      <trkpt lat="44.59504" lon="0.91652">
        <ele>205.86</ele>
        <time>2013-01-30T15:54:57Z</time>
      </trkpt>
      <trkpt lat="44.59526" lon="0.91636">
        <ele>208.26</ele>
        <time>2013-01-30T15:55:09Z</time>
      </trkpt>
      <trkpt lat="44.59549" lon="0.9163">
        <ele>209.7</ele>
        <time>2013-01-30T15:55:23Z</time>
      </trkpt>
      <trkpt lat="44.5956" lon="0.91624">
        <ele>210.19</ele>
        <time>2013-01-30T15:55:27Z</time>
      </trkpt>
      <trkpt lat="44.59579" lon="0.91619">
        <ele>211.15</ele>
        <time>2013-01-30T15:55:33Z</time>
      </trkpt>
      <trkpt lat="44.59614" lon="0.91613">
        <ele>211.15</ele>
        <time>2013-01-30T15:55:40Z</time>
      </trkpt>
      <trkpt lat="44.59623" lon="0.91607">
        <ele>211.15</ele>
        <time>2013-01-30T15:55:42Z</time>
      </trkpt>
      <trkpt lat="44.59672" lon="0.91583">
        <ele>211.63</ele>
        <time>2013-01-30T15:55:54Z</time>
      </trkpt>
      <trkpt lat="44.59706" lon="0.9155">
        <ele>215.95</ele>
        <time>2013-01-30T15:56:06Z</time>
      </trkpt>
      <trkpt lat="44.59726" lon="0.91452">
        <ele>217.4</ele>
        <time>2013-01-30T15:56:22Z</time>
      </trkpt>
      <trkpt lat="44.59736" lon="0.9136">
        <ele>219.32</ele>
        <time>2013-01-30T15:56:37Z</time>
      </trkpt>
      <trkpt lat="44.59746" lon="0.91332">
        <ele>221.24</ele>
        <time>2013-01-30T15:56:44Z</time>
      </trkpt>
      <trkpt lat="44.59758" lon="0.9125">
        <ele>220.76</ele>
        <time>2013-01-30T15:56:59Z</time>
      </trkpt>
      <trkpt lat="44.59795" lon="0.91126">
        <ele>216.43</ele>
        <time>2013-01-30T15:57:17Z</time>
      </trkpt>
      <trkpt lat="44.59851" lon="0.91018">
        <ele>208.26</ele>
        <time>2013-01-30T15:57:28Z</time>
      </trkpt>
      <trkpt lat="44.59924" lon="0.90931">
        <ele>198.17</ele>
        <time>2013-01-30T15:57:38Z</time>
      </trkpt>
      <trkpt lat="44.59941" lon="0.90897">
        <ele>194.8</ele>
        <time>2013-01-30T15:57:42Z</time>
      </trkpt>
      <trkpt lat="44.59962" lon="0.9076">
        <ele>188.08</ele>
        <time>2013-01-30T15:57:55Z</time>
      </trkpt>
      <trkpt lat="44.59981" lon="0.90676">
        <ele>186.63</ele>
        <time>2013-01-30T15:58:04Z</time>
      </trkpt>
      <trkpt lat="44.59991" lon="0.9066">
        <ele>187.11</ele>
        <time>2013-01-30T15:58:07Z</time>
      </trkpt>
      <trkpt lat="44.60006" lon="0.90629">
        <ele>187.59</ele>
        <time>2013-01-30T15:58:12Z</time>
      </trkpt>
      <trkpt lat="44.60005" lon="0.90598">
        <ele>187.11</ele>
        <time>2013-01-30T15:58:16Z</time>
      </trkpt>
      <trkpt lat="44.60006" lon="0.90556">
        <ele>183.27</ele>
        <time>2013-01-30T15:58:20Z</time>
      </trkpt>
      <trkpt lat="44.59998" lon="0.90381">
        <ele>175.1</ele>
        <time>2013-01-30T15:58:34Z</time>
      </trkpt>
      <trkpt lat="44.59997" lon="0.90359">
        <ele>174.62</ele>
        <time>2013-01-30T15:58:36Z</time>
      </trkpt>
      <trkpt lat="44.59993" lon="0.90283">
        <ele>170.29</ele>
        <time>2013-01-30T15:58:43Z</time>
      </trkpt>
      <trkpt lat="44.59984" lon="0.90233">
        <ele>166.93</ele>
        <time>2013-01-30T15:58:47Z</time>
      </trkpt>
      <trkpt lat="44.59958" lon="0.9014">
        <ele>159.24</ele>
        <time>2013-01-30T15:58:55Z</time>
      </trkpt>
      <trkpt lat="44.59967" lon="0.90092">
        <ele>154.91</ele>
        <time>2013-01-30T15:59:00Z</time>
      </trkpt>
      <trkpt lat="44.59989" lon="0.90047">
        <ele>152.51</ele>
        <time>2013-01-30T15:59:05Z</time>
      </trkpt>
      <trkpt lat="44.60021" lon="0.89947">
        <ele>152.03</ele>
        <time>2013-01-30T15:59:16Z</time>
      </trkpt>
      <trkpt lat="44.60026" lon="0.89912">
        <ele>152.03</ele>
        <time>2013-01-30T15:59:20Z</time>
      </trkpt>
      <trkpt lat="44.60019" lon="0.89856">
        <ele>152.51</ele>
        <time>2013-01-30T15:59:28Z</time>
      </trkpt>
      <trkpt lat="44.60021" lon="0.8985">
        <ele>152.51</ele>
        <time>2013-01-30T15:59:29Z</time>
      </trkpt>
      <trkpt lat="44.60033" lon="0.89809">
        <ele>155.87</ele>
        <time>2013-01-30T15:59:42Z</time>
      </trkpt>
      <trkpt lat="44.60038" lon="0.89791">
        <ele>157.79</ele>
        <time>2013-01-30T15:59:49Z</time>
      </trkpt>
      <trkpt lat="44.6004" lon="0.89735">
        <ele>158.75</ele>
        <time>2013-01-30T16:00:06Z</time>
      </trkpt>
      <trkpt lat="44.60054" lon="0.89682">
        <ele>159.72</ele>
        <time>2013-01-30T16:00:20Z</time>
      </trkpt>
      <trkpt lat="44.60058" lon="0.89673">
        <ele>161.16</ele>
        <time>2013-01-30T16:00:22Z</time>
      </trkpt>
      <trkpt lat="44.60065" lon="0.89644">
        <ele>164.52</ele>
        <time>2013-01-30T16:00:27Z</time>
      </trkpt>
      <trkpt lat="44.60067" lon="0.89616">
        <ele>164.04</ele>
        <time>2013-01-30T16:00:31Z</time>
      </trkpt>
      <trkpt lat="44.60065" lon="0.89572">
        <ele>165</ele>
        <time>2013-01-30T16:00:38Z</time>
      </trkpt>
      <trkpt lat="44.60057" lon="0.89565">
        <ele>163.56</ele>
        <time>2013-01-30T16:00:42Z</time>
      </trkpt>
      <trkpt lat="44.60018" lon="0.89553">
        <ele>160.2</ele>
        <time>2013-01-30T16:00:54Z</time>
      </trkpt>
      <trkpt lat="44.60012" lon="0.89535">
        <ele>160.68</ele>
        <time>2013-01-30T16:01:03Z</time>
      </trkpt>
      <trkpt lat="44.60006" lon="0.89532">
        <ele>164.04</ele>
        <time>2013-01-30T16:01:17Z</time>
      </trkpt>
      <trkpt lat="44.60007" lon="0.89534">
        <ele>165.48</ele>
        <time>2013-01-30T16:01:33Z</time>
      </trkpt>
      <trkpt lat="44.60005" lon="0.89538">
        <ele>168.85</ele>
        <time>2013-01-30T16:01:53Z</time>
      </trkpt>
      <trkpt lat="44.60004" lon="0.8954">
        <ele>170.29</ele>
        <time>2013-01-30T16:02:14Z</time>
      </trkpt>
      <trkpt lat="44.60004" lon="0.8954">
        <ele>170.29</ele>
        <time>2013-01-30T16:02:27Z</time>
      </trkpt>
      <trkpt lat="44.60002" lon="0.89544">
        <ele>171.73</ele>
        <time>2013-01-30T16:02:45Z</time>
      </trkpt>
      <trkpt lat="44.60001" lon="0.89553">
        <ele>176.06</ele>
        <time>2013-01-30T16:03:05Z</time>
      </trkpt>
      <trkpt lat="44.60001" lon="0.89552">
        <ele>176.06</ele>
        <time>2013-01-30T16:03:28Z</time>
      </trkpt>
      <trkpt lat="44.60002" lon="0.89549">
        <ele>174.14</ele>
        <time>2013-01-30T16:03:38Z</time>
      </trkpt>
      <trkpt lat="44.60009" lon="0.89547">
        <ele>171.25</ele>
        <time>2013-01-30T16:03:44Z</time>
      </trkpt>
      <trkpt lat="44.60036" lon="0.89523">
        <ele>169.33</ele>
        <time>2013-01-30T16:03:56Z</time>
      </trkpt>
      <trkpt lat="44.60076" lon="0.89494">
        <ele>168.85</ele>
        <time>2013-01-30T16:04:13Z</time>
      </trkpt>
      <trkpt lat="44.60109" lon="0.89424">
        <ele>168.85</ele>
        <time>2013-01-30T16:04:29Z</time>
      </trkpt>
      <trkpt lat="44.6012" lon="0.89398">
        <ele>169.33</ele>
        <time>2013-01-30T16:04:34Z</time>
      </trkpt>
      <trkpt lat="44.60123" lon="0.89387">
        <ele>169.33</ele>
        <time>2013-01-30T16:04:36Z</time>
      </trkpt>
      <trkpt lat="44.6013" lon="0.89309">
        <ele>168.85</ele>
        <time>2013-01-30T16:04:49Z</time>
      </trkpt>
      <trkpt lat="44.6015" lon="0.89301">
        <ele>165.48</ele>
        <time>2013-01-30T16:04:54Z</time>
      </trkpt>
      <trkpt lat="44.60163" lon="0.89299">
        <ele>164.52</ele>
        <time>2013-01-30T16:04:56Z</time>
      </trkpt>
      <trkpt lat="44.60186" lon="0.8928">
        <ele>163.08</ele>
        <time>2013-01-30T16:05:01Z</time>
      </trkpt>
      <trkpt lat="44.60202" lon="0.89266">
        <ele>164.04</ele>
        <time>2013-01-30T16:05:05Z</time>
      </trkpt>
      <trkpt lat="44.60249" lon="0.89241">
        <ele>165.48</ele>
        <time>2013-01-30T16:05:18Z</time>
      </trkpt>
      <trkpt lat="44.60285" lon="0.89226">
        <ele>164.04</ele>
        <time>2013-01-30T16:05:25Z</time>
      </trkpt>
      <trkpt lat="44.60329" lon="0.89163">
        <ele>165</ele>
        <time>2013-01-30T16:05:37Z</time>
      </trkpt>
      <trkpt lat="44.60372" lon="0.89133">
        <ele>167.89</ele>
        <time>2013-01-30T16:05:50Z</time>
      </trkpt>
      <trkpt lat="44.60417" lon="0.89106">
        <ele>170.77</ele>
        <time>2013-01-30T16:06:05Z</time>
      </trkpt>
      <trkpt lat="44.60458" lon="0.89076">
        <ele>173.66</ele>
        <time>2013-01-30T16:06:20Z</time>
      </trkpt>
      <trkpt lat="44.60486" lon="0.89063">
        <ele>175.1</ele>
        <time>2013-01-30T16:06:32Z</time>
      </trkpt>
      <trkpt lat="44.60519" lon="0.89041">
        <ele>173.66</ele>
        <time>2013-01-30T16:06:44Z</time>
      </trkpt>
      <trkpt lat="44.60561" lon="0.89012">
        <ele>175.1</ele>
        <time>2013-01-30T16:06:56Z</time>
      </trkpt>
      <trkpt lat="44.60611" lon="0.88995">
        <ele>176.54</ele>
        <time>2013-01-30T16:07:10Z</time>
      </trkpt>
      <trkpt lat="44.60623" lon="0.88993">
        <ele>177.5</ele>
        <time>2013-01-30T16:07:18Z</time>
      </trkpt>
      <trkpt lat="44.60657" lon="0.88981">
        <ele>177.98</ele>
        <time>2013-01-30T16:07:29Z</time>
      </trkpt>
      <trkpt lat="44.60699" lon="0.88969">
        <ele>177.98</ele>
        <time>2013-01-30T16:07:40Z</time>
      </trkpt>
      <trkpt lat="44.60721" lon="0.88956">
        <ele>175.58</ele>
        <time>2013-01-30T16:07:45Z</time>
      </trkpt>
      <trkpt lat="44.60766" lon="0.88934">
        <ele>172.21</ele>
        <time>2013-01-30T16:07:57Z</time>
      </trkpt>
      <trkpt lat="44.60775" lon="0.88927">
        <ele>174.14</ele>
        <time>2013-01-30T16:08:13Z</time>
      </trkpt>
      <trkpt lat="44.60805" lon="0.88911">
        <ele>175.1</ele>
        <time>2013-01-30T16:08:26Z</time>
      </trkpt>
      <trkpt lat="44.60832" lon="0.8889">
        <ele>175.58</ele>
        <time>2013-01-30T16:08:38Z</time>
      </trkpt>
      <trkpt lat="44.6087" lon="0.88863">
        <ele>177.5</ele>
        <time>2013-01-30T16:08:49Z</time>
      </trkpt>
      <trkpt lat="44.60903" lon="0.8884">
        <ele>175.58</ele>
        <time>2013-01-30T16:09:00Z</time>
      </trkpt>
      <trkpt lat="44.60925" lon="0.88818">
        <ele>176.54</ele>
        <time>2013-01-30T16:09:08Z</time>
      </trkpt>
      <trkpt lat="44.60956" lon="0.8879">
        <ele>177.02</ele>
        <time>2013-01-30T16:09:15Z</time>
      </trkpt>
      <trkpt lat="44.60964" lon="0.88783">
        <ele>177.02</ele>
        <time>2013-01-30T16:09:17Z</time>
      </trkpt>
      <trkpt lat="44.60982" lon="0.8877">
        <ele>177.02</ele>
        <time>2013-01-30T16:09:21Z</time>
      </trkpt>
      <trkpt lat="44.61026" lon="0.88737">
        <ele>177.98</ele>
        <time>2013-01-30T16:09:31Z</time>
      </trkpt>
      <trkpt lat="44.61035" lon="0.88697">
        <ele>179.42</ele>
        <time>2013-01-30T16:09:39Z</time>
      </trkpt>
      <trkpt lat="44.61035" lon="0.88693">
        <ele>179.42</ele>
        <time>2013-01-30T16:09:40Z</time>
      </trkpt>
      <trkpt lat="44.6104" lon="0.88644">
        <ele>183.75</ele>
        <time>2013-01-30T16:09:56Z</time>
      </trkpt>
      <trkpt lat="44.61041" lon="0.8861">
        <ele>185.19</ele>
        <time>2013-01-30T16:10:09Z</time>
      </trkpt>
      <trkpt lat="44.6104" lon="0.88602">
        <ele>186.63</ele>
        <time>2013-01-30T16:10:12Z</time>
      </trkpt>
      <trkpt lat="44.61042" lon="0.88582">
        <ele>186.63</ele>
        <time>2013-01-30T16:10:21Z</time>
      </trkpt>
      <trkpt lat="44.61027" lon="0.88545">
        <ele>188.56</ele>
        <time>2013-01-30T16:10:37Z</time>
      </trkpt>
      <trkpt lat="44.61007" lon="0.88509">
        <ele>190.48</ele>
        <time>2013-01-30T16:10:54Z</time>
      </trkpt>
      <trkpt lat="44.61011" lon="0.88497">
        <ele>190</ele>
        <time>2013-01-30T16:10:59Z</time>
      </trkpt>
      <trkpt lat="44.61044" lon="0.88458">
        <ele>191.92</ele>
        <time>2013-01-30T16:11:14Z</time>
      </trkpt>
      <trkpt lat="44.61073" lon="0.88402">
        <ele>195.28</ele>
        <time>2013-01-30T16:11:29Z</time>
      </trkpt>
      <trkpt lat="44.61089" lon="0.88315">
        <ele>193.84</ele>
        <time>2013-01-30T16:11:45Z</time>
      </trkpt>
      <trkpt lat="44.61098" lon="0.88235">
        <ele>189.52</ele>
        <time>2013-01-30T16:11:59Z</time>
      </trkpt>
      <trkpt lat="44.6111" lon="0.88143">
        <ele>188.08</ele>
        <time>2013-01-30T16:12:12Z</time>
      </trkpt>
      <trkpt lat="44.61151" lon="0.88083">
        <ele>185.19</ele>
        <time>2013-01-30T16:12:23Z</time>
      </trkpt>
      <trkpt lat="44.61158" lon="0.88082">
        <ele>185.19</ele>
        <time>2013-01-30T16:12:24Z</time>
      </trkpt>
      <trkpt lat="44.61204" lon="0.88095">
        <ele>183.27</ele>
        <time>2013-01-30T16:12:31Z</time>
      </trkpt>
      <trkpt lat="44.61224" lon="0.88109">
        <ele>182.79</ele>
        <time>2013-01-30T16:12:34Z</time>
      </trkpt>
      <trkpt lat="44.61301" lon="0.88109">
        <ele>181.35</ele>
        <time>2013-01-30T16:12:44Z</time>
      </trkpt>
      <trkpt lat="44.61308" lon="0.88104">
        <ele>181.35</ele>
        <time>2013-01-30T16:12:45Z</time>
      </trkpt>
      <trkpt lat="44.61344" lon="0.88079">
        <ele>181.35</ele>
        <time>2013-01-30T16:12:50Z</time>
      </trkpt>
      <trkpt lat="44.61393" lon="0.88077">
        <ele>180.87</ele>
        <time>2013-01-30T16:12:56Z</time>
      </trkpt>
      <trkpt lat="44.61426" lon="0.88088">
        <ele>180.38</ele>
        <time>2013-01-30T16:13:00Z</time>
      </trkpt>
      <trkpt lat="44.61488" lon="0.88053">
        <ele>179.42</ele>
        <time>2013-01-30T16:13:08Z</time>
      </trkpt>
      <trkpt lat="44.61497" lon="0.88032">
        <ele>179.42</ele>
        <time>2013-01-30T16:13:10Z</time>
      </trkpt>
      <trkpt lat="44.61527" lon="0.87935">
        <ele>177.5</ele>
        <time>2013-01-30T16:13:19Z</time>
      </trkpt>
      <trkpt lat="44.61537" lon="0.87917">
        <ele>177.02</ele>
        <time>2013-01-30T16:13:21Z</time>
      </trkpt>
      <trkpt lat="44.61589" lon="0.87894">
        <ele>174.62</ele>
        <time>2013-01-30T16:13:28Z</time>
      </trkpt>
      <trkpt lat="44.61605" lon="0.87902">
        <ele>174.14</ele>
        <time>2013-01-30T16:13:30Z</time>
      </trkpt>
      <trkpt lat="44.61671" lon="0.87937">
        <ele>169.81</ele>
        <time>2013-01-30T16:13:39Z</time>
      </trkpt>
      <trkpt lat="44.61722" lon="0.87914">
        <ele>165</ele>
        <time>2013-01-30T16:13:46Z</time>
      </trkpt>
      <trkpt lat="44.61756" lon="0.87853">
        <ele>160.68</ele>
        <time>2013-01-30T16:13:53Z</time>
      </trkpt>
      <trkpt lat="44.61781" lon="0.87846">
        <ele>158.27</ele>
        <time>2013-01-30T16:13:56Z</time>
      </trkpt>
      <trkpt lat="44.61875" lon="0.87844">
        <ele>151.54</ele>
        <time>2013-01-30T16:14:08Z</time>
      </trkpt>
      <trkpt lat="44.61937" lon="0.87842">
        <ele>150.1</ele>
        <time>2013-01-30T16:14:16Z</time>
      </trkpt>
      <trkpt lat="44.62027" lon="0.8787">
        <ele>153.95</ele>
        <time>2013-01-30T16:14:30Z</time>
      </trkpt>
      <trkpt lat="44.62056" lon="0.87881">
        <ele>156.83</ele>
        <time>2013-01-30T16:14:36Z</time>
      </trkpt>
      <trkpt lat="44.62064" lon="0.87884">
        <ele>157.79</ele>
        <time>2013-01-30T16:14:38Z</time>
      </trkpt>
      <trkpt lat="44.62077" lon="0.87887">
        <ele>159.24</ele>
        <time>2013-01-30T16:14:41Z</time>
      </trkpt>
      <trkpt lat="44.62097" lon="0.87888">
        <ele>160.2</ele>
        <time>2013-01-30T16:14:46Z</time>
      </trkpt>
      <trkpt lat="44.62118" lon="0.87883">
        <ele>161.64</ele>
        <time>2013-01-30T16:14:51Z</time>
      </trkpt>
      <trkpt lat="44.62189" lon="0.87818">
        <ele>165.48</ele>
        <time>2013-01-30T16:15:10Z</time>
      </trkpt>
      <trkpt lat="44.62257" lon="0.8775">
        <ele>168.37</ele>
        <time>2013-01-30T16:15:30Z</time>
      </trkpt>
      <trkpt lat="44.62304" lon="0.877">
        <ele>170.29</ele>
        <time>2013-01-30T16:15:45Z</time>
      </trkpt>
      <trkpt lat="44.62335" lon="0.87669">
        <ele>171.25</ele>
        <time>2013-01-30T16:15:55Z</time>
      </trkpt>
      <trkpt lat="44.62386" lon="0.87626">
        <ele>176.06</ele>
        <time>2013-01-30T16:16:12Z</time>
      </trkpt>
      <trkpt lat="44.62425" lon="0.87608">
        <ele>178.94</ele>
        <time>2013-01-30T16:16:25Z</time>
      </trkpt>
      <trkpt lat="44.62467" lon="0.87594">
        <ele>179.9</ele>
        <time>2013-01-30T16:16:39Z</time>
      </trkpt>
      <trkpt lat="44.62516" lon="0.87576">
        <ele>181.35</ele>
        <time>2013-01-30T16:16:55Z</time>
      </trkpt>
      <trkpt lat="44.62557" lon="0.87563">
        <ele>180.38</ele>
        <time>2013-01-30T16:17:12Z</time>
      </trkpt>
      <trkpt lat="44.62585" lon="0.87552">
        <ele>181.83</ele>
        <time>2013-01-30T16:17:25Z</time>
      </trkpt>
      <trkpt lat="44.62624" lon="0.87538">
        <ele>183.27</ele>
        <time>2013-01-30T16:17:43Z</time>
      </trkpt>
      <trkpt lat="44.62655" lon="0.8753">
        <ele>185.19</ele>
        <time>2013-01-30T16:17:58Z</time>
      </trkpt>
      <trkpt lat="44.62692" lon="0.87526">
        <ele>188.08</ele>
        <time>2013-01-30T16:18:17Z</time>
      </trkpt>
      <trkpt lat="44.62719" lon="0.87532">
        <ele>190.48</ele>
        <time>2013-01-30T16:18:32Z</time>
      </trkpt>
      <trkpt lat="44.62751" lon="0.87554">
        <ele>192.88</ele>
        <time>2013-01-30T16:18:45Z</time>
      </trkpt>
      <trkpt lat="44.62789" lon="0.87566">
        <ele>196.25</ele>
        <time>2013-01-30T16:18:58Z</time>
      </trkpt>
      <trkpt lat="44.62802" lon="0.87561">
        <ele>196.73</ele>
        <time>2013-01-30T16:19:04Z</time>
      </trkpt>
      <trkpt lat="44.62846" lon="0.87549">
        <ele>195.28</ele>
        <time>2013-01-30T16:19:22Z</time>
      </trkpt>
      <trkpt lat="44.6288" lon="0.87579">
        <ele>196.25</ele>
        <time>2013-01-30T16:19:36Z</time>
      </trkpt>
      <trkpt lat="44.62925" lon="0.87622">
        <ele>197.21</ele>
        <time>2013-01-30T16:19:54Z</time>
      </trkpt>
      <trkpt lat="44.6296" lon="0.87655">
        <ele>199.61</ele>
        <time>2013-01-30T16:20:08Z</time>
      </trkpt>
      <trkpt lat="44.62978" lon="0.8769">
        <ele>200.09</ele>
        <time>2013-01-30T16:20:18Z</time>
      </trkpt>
      <trkpt lat="44.62967" lon="0.87775">
        <ele>199.13</ele>
        <time>2013-01-30T16:20:32Z</time>
      </trkpt>
      <trkpt lat="44.62963" lon="0.87824">
        <ele>200.09</ele>
        <time>2013-01-30T16:20:43Z</time>
      </trkpt>
      <trkpt lat="44.62988" lon="0.8782">
        <ele>201.53</ele>
        <time>2013-01-30T16:20:54Z</time>
      </trkpt>
      <trkpt lat="44.6303" lon="0.87816">
        <ele>203.46</ele>
        <time>2013-01-30T16:21:11Z</time>
      </trkpt>
      <trkpt lat="44.63058" lon="0.87812">
        <ele>205.38</ele>
        <time>2013-01-30T16:21:24Z</time>
      </trkpt>
      <trkpt lat="44.6306" lon="0.87812">
        <ele>205.86</ele>
        <time>2013-01-30T16:21:25Z</time>
      </trkpt>
      <trkpt lat="44.63065" lon="0.87813">
        <ele>205.86</ele>
        <time>2013-01-30T16:21:28Z</time>
      </trkpt>
      <trkpt lat="44.63074" lon="0.87818">
        <ele>206.82</ele>
        <time>2013-01-30T16:21:43Z</time>
      </trkpt>
    </trkseg>
  </trk>
</gpx>